<?xml version="1.0" encoding="UTF-8" standalone="no" ?>
<gpx xmlns="http://www.topografix.com/GPX/1/1" xmlns:xsi="http://www.w3.org/2001/XMLSchema-instance" xsi:schemaLocation="http://www.topografix.com/GPX/1/1 http://www.topografix.com/GPX/1/1/gpx.xsd" version="1.1" creator="VisuGPX - https://www.visugpx.com">
  <metadata>
    <name>Crête de la Molière</name>
    <desc><![CDATA[Trace AlpineQuest 29/10/2017 10:36:15]]></desc>
  </metadata>
  <trk>
    <name><![CDATA[Moliere]]></name>
    <trkseg>
      <trkpt lat="45.12916" lon="5.58502">
        <ele>950.76599121094</ele>
        <time>2017-10-29T09:36:15Z</time>
      </trkpt>
      <trkpt lat="45.1292" lon="5.58493">
        <ele>952.36602783203</ele>
        <time>2017-10-29T09:37:42Z</time>
      </trkpt>
      <trkpt lat="45.12925" lon="5.58483">
        <ele>952.36602783203</ele>
        <time>2017-10-29T09:37:47Z</time>
      </trkpt>
      <trkpt lat="45.1293" lon="5.58475">
        <ele>952.26599121094</ele>
        <time>2017-10-29T09:37:52Z</time>
      </trkpt>
      <trkpt lat="45.12944" lon="5.58465">
        <ele>951.96600341797</ele>
        <time>2017-10-29T09:37:59Z</time>
      </trkpt>
      <trkpt lat="45.12954" lon="5.58442">
        <ele>949.26599121094</ele>
        <time>2017-10-29T09:38:05Z</time>
      </trkpt>
      <trkpt lat="45.12963" lon="5.58419">
        <ele>947.36602783203</ele>
        <time>2017-10-29T09:38:10Z</time>
      </trkpt>
      <trkpt lat="45.12971" lon="5.58386">
        <ele>946.76599121094</ele>
        <time>2017-10-29T09:38:16Z</time>
      </trkpt>
      <trkpt lat="45.12983" lon="5.58345">
        <ele>947.36602783203</ele>
        <time>2017-10-29T09:38:22Z</time>
      </trkpt>
      <trkpt lat="45.12994" lon="5.58312">
        <ele>948.166015625</ele>
        <time>2017-10-29T09:38:28Z</time>
      </trkpt>
      <trkpt lat="45.13002" lon="5.58279">
        <ele>947.26599121094</ele>
        <time>2017-10-29T09:38:34Z</time>
      </trkpt>
      <trkpt lat="45.13015" lon="5.58244">
        <ele>946.36602783203</ele>
        <time>2017-10-29T09:38:40Z</time>
      </trkpt>
      <trkpt lat="45.13037" lon="5.5822">
        <ele>946.666015625</ele>
        <time>2017-10-29T09:38:46Z</time>
      </trkpt>
      <trkpt lat="45.13067" lon="5.58215">
        <ele>946.166015625</ele>
        <time>2017-10-29T09:38:52Z</time>
      </trkpt>
      <trkpt lat="45.13089" lon="5.58193">
        <ele>945.36602783203</ele>
        <time>2017-10-29T09:38:59Z</time>
      </trkpt>
      <trkpt lat="45.13107" lon="5.58181">
        <ele>944.06597900391</ele>
        <time>2017-10-29T09:39:04Z</time>
      </trkpt>
      <trkpt lat="45.13135" lon="5.58161">
        <ele>944.166015625</ele>
        <time>2017-10-29T09:39:10Z</time>
      </trkpt>
      <trkpt lat="45.13168" lon="5.58166">
        <ele>945.46600341797</ele>
        <time>2017-10-29T09:39:16Z</time>
      </trkpt>
      <trkpt lat="45.13204" lon="5.58171">
        <ele>944.76599121094</ele>
        <time>2017-10-29T09:39:22Z</time>
      </trkpt>
      <trkpt lat="45.13236" lon="5.58177">
        <ele>944.56701660156</ele>
        <time>2017-10-29T09:39:28Z</time>
      </trkpt>
      <trkpt lat="45.13265" lon="5.58188">
        <ele>945.1669921875</ele>
        <time>2017-10-29T09:39:34Z</time>
      </trkpt>
      <trkpt lat="45.13294" lon="5.58207">
        <ele>945.76702880859</ele>
        <time>2017-10-29T09:39:40Z</time>
      </trkpt>
      <trkpt lat="45.13323" lon="5.58229">
        <ele>944.96697998047</ele>
        <time>2017-10-29T09:39:46Z</time>
      </trkpt>
      <trkpt lat="45.13352" lon="5.58256">
        <ele>944.56701660156</ele>
        <time>2017-10-29T09:39:52Z</time>
      </trkpt>
      <trkpt lat="45.13379" lon="5.58286">
        <ele>944.06701660156</ele>
        <time>2017-10-29T09:39:58Z</time>
      </trkpt>
      <trkpt lat="45.13403" lon="5.58317">
        <ele>943.06701660156</ele>
        <time>2017-10-29T09:40:04Z</time>
      </trkpt>
      <trkpt lat="45.13427" lon="5.58347">
        <ele>942.1669921875</ele>
        <time>2017-10-29T09:40:10Z</time>
      </trkpt>
      <trkpt lat="45.13453" lon="5.58378">
        <ele>943.36700439453</ele>
        <time>2017-10-29T09:40:16Z</time>
      </trkpt>
      <trkpt lat="45.13482" lon="5.58409">
        <ele>943.06701660156</ele>
        <time>2017-10-29T09:40:22Z</time>
      </trkpt>
      <trkpt lat="45.13514" lon="5.5844">
        <ele>941.76702880859</ele>
        <time>2017-10-29T09:40:28Z</time>
      </trkpt>
      <trkpt lat="45.13546" lon="5.58468">
        <ele>941.96801757812</ele>
        <time>2017-10-29T09:40:33Z</time>
      </trkpt>
      <trkpt lat="45.1358" lon="5.58495">
        <ele>940.66802978516</ele>
        <time>2017-10-29T09:40:38Z</time>
      </trkpt>
      <trkpt lat="45.13614" lon="5.58522">
        <ele>938.06799316406</ele>
        <time>2017-10-29T09:40:43Z</time>
      </trkpt>
      <trkpt lat="45.13649" lon="5.58555">
        <ele>934.96801757812</ele>
        <time>2017-10-29T09:40:48Z</time>
      </trkpt>
      <trkpt lat="45.13684" lon="5.58589">
        <ele>932.66802978516</ele>
        <time>2017-10-29T09:40:53Z</time>
      </trkpt>
      <trkpt lat="45.13709" lon="5.58607">
        <ele>930.56799316406</ele>
        <time>2017-10-29T09:41:00Z</time>
      </trkpt>
      <trkpt lat="45.13737" lon="5.58613">
        <ele>929.46801757812</ele>
        <time>2017-10-29T09:41:06Z</time>
      </trkpt>
      <trkpt lat="45.13767" lon="5.58616">
        <ele>929.46801757812</ele>
        <time>2017-10-29T09:41:12Z</time>
      </trkpt>
      <trkpt lat="45.13793" lon="5.5862">
        <ele>929.66802978516</ele>
        <time>2017-10-29T09:41:18Z</time>
      </trkpt>
      <trkpt lat="45.13818" lon="5.58622">
        <ele>928.66802978516</ele>
        <time>2017-10-29T09:41:24Z</time>
      </trkpt>
      <trkpt lat="45.13845" lon="5.58628">
        <ele>926.16802978516</ele>
        <time>2017-10-29T09:41:30Z</time>
      </trkpt>
      <trkpt lat="45.13873" lon="5.5864">
        <ele>925.06896972656</ele>
        <time>2017-10-29T09:41:36Z</time>
      </trkpt>
      <trkpt lat="45.13902" lon="5.58656">
        <ele>926.16900634766</ele>
        <time>2017-10-29T09:41:42Z</time>
      </trkpt>
      <trkpt lat="45.13927" lon="5.5867">
        <ele>924.66900634766</ele>
        <time>2017-10-29T09:41:48Z</time>
      </trkpt>
      <trkpt lat="45.13951" lon="5.58686">
        <ele>924.36901855469</ele>
        <time>2017-10-29T09:41:54Z</time>
      </trkpt>
      <trkpt lat="45.13977" lon="5.58702">
        <ele>922.16900634766</ele>
        <time>2017-10-29T09:42:00Z</time>
      </trkpt>
      <trkpt lat="45.14001" lon="5.58718">
        <ele>922.16900634766</ele>
        <time>2017-10-29T09:42:06Z</time>
      </trkpt>
      <trkpt lat="45.14025" lon="5.58734">
        <ele>923.56896972656</ele>
        <time>2017-10-29T09:42:12Z</time>
      </trkpt>
      <trkpt lat="45.14047" lon="5.5875">
        <ele>923.66900634766</ele>
        <time>2017-10-29T09:42:18Z</time>
      </trkpt>
      <trkpt lat="45.14065" lon="5.58762">
        <ele>924.16900634766</ele>
        <time>2017-10-29T09:42:24Z</time>
      </trkpt>
      <trkpt lat="45.14081" lon="5.58775">
        <ele>924.26898193359</ele>
        <time>2017-10-29T09:42:30Z</time>
      </trkpt>
      <trkpt lat="45.14097" lon="5.58789">
        <ele>924.46899414062</ele>
        <time>2017-10-29T09:42:36Z</time>
      </trkpt>
      <trkpt lat="45.14112" lon="5.58802">
        <ele>922.76898193359</ele>
        <time>2017-10-29T09:42:42Z</time>
      </trkpt>
      <trkpt lat="45.14126" lon="5.58813">
        <ele>920.86901855469</ele>
        <time>2017-10-29T09:42:47Z</time>
      </trkpt>
      <trkpt lat="45.14141" lon="5.58826">
        <ele>922.06896972656</ele>
        <time>2017-10-29T09:42:53Z</time>
      </trkpt>
      <trkpt lat="45.14157" lon="5.58837">
        <ele>920.96899414062</ele>
        <time>2017-10-29T09:42:59Z</time>
      </trkpt>
      <trkpt lat="45.14173" lon="5.58845">
        <ele>917.07000732422</ele>
        <time>2017-10-29T09:43:05Z</time>
      </trkpt>
      <trkpt lat="45.14191" lon="5.58851">
        <ele>917.96997070312</ele>
        <time>2017-10-29T09:43:12Z</time>
      </trkpt>
      <trkpt lat="45.14206" lon="5.5886">
        <ele>921.16998291016</ele>
        <time>2017-10-29T09:43:18Z</time>
      </trkpt>
      <trkpt lat="45.14221" lon="5.58872">
        <ele>922.77001953125</ele>
        <time>2017-10-29T09:43:24Z</time>
      </trkpt>
      <trkpt lat="45.14233" lon="5.58887">
        <ele>926.16998291016</ele>
        <time>2017-10-29T09:43:31Z</time>
      </trkpt>
      <trkpt lat="45.14245" lon="5.58904">
        <ele>926.07000732422</ele>
        <time>2017-10-29T09:43:38Z</time>
      </trkpt>
      <trkpt lat="45.14256" lon="5.58918">
        <ele>926.36999511719</ele>
        <time>2017-10-29T09:43:44Z</time>
      </trkpt>
      <trkpt lat="45.14268" lon="5.58931">
        <ele>927.27001953125</ele>
        <time>2017-10-29T09:43:50Z</time>
      </trkpt>
      <trkpt lat="45.14284" lon="5.58944">
        <ele>930.77001953125</ele>
        <time>2017-10-29T09:43:58Z</time>
      </trkpt>
      <trkpt lat="45.143" lon="5.58956">
        <ele>932.36999511719</ele>
        <time>2017-10-29T09:44:06Z</time>
      </trkpt>
      <trkpt lat="45.14315" lon="5.58969">
        <ele>932.46997070312</ele>
        <time>2017-10-29T09:44:14Z</time>
      </trkpt>
      <trkpt lat="45.14323" lon="5.58974">
        <ele>934.66998291016</ele>
        <time>2017-10-29T09:44:19Z</time>
      </trkpt>
      <trkpt lat="45.14331" lon="5.5898">
        <ele>936.77001953125</ele>
        <time>2017-10-29T09:44:24Z</time>
      </trkpt>
      <trkpt lat="45.14339" lon="5.58985">
        <ele>938.27001953125</ele>
        <time>2017-10-29T09:44:29Z</time>
      </trkpt>
      <trkpt lat="45.14353" lon="5.58992">
        <ele>940.16998291016</ele>
        <time>2017-10-29T09:44:37Z</time>
      </trkpt>
      <trkpt lat="45.1436" lon="5.58998">
        <ele>940.57000732422</ele>
        <time>2017-10-29T09:44:42Z</time>
      </trkpt>
      <trkpt lat="45.14377" lon="5.59003">
        <ele>942.07000732422</ele>
        <time>2017-10-29T09:44:51Z</time>
      </trkpt>
      <trkpt lat="45.14395" lon="5.59007">
        <ele>944.96997070312</ele>
        <time>2017-10-29T09:44:59Z</time>
      </trkpt>
      <trkpt lat="45.14411" lon="5.59011">
        <ele>947.96997070312</ele>
        <time>2017-10-29T09:45:08Z</time>
      </trkpt>
      <trkpt lat="45.14427" lon="5.59015">
        <ele>947.46997070312</ele>
        <time>2017-10-29T09:45:16Z</time>
      </trkpt>
      <trkpt lat="45.14443" lon="5.59019">
        <ele>948.16998291016</ele>
        <time>2017-10-29T09:45:25Z</time>
      </trkpt>
      <trkpt lat="45.14452" lon="5.59022">
        <ele>948.36999511719</ele>
        <time>2017-10-29T09:45:30Z</time>
      </trkpt>
      <trkpt lat="45.14467" lon="5.59033">
        <ele>950.07000732422</ele>
        <time>2017-10-29T09:45:37Z</time>
      </trkpt>
      <trkpt lat="45.1448" lon="5.59045">
        <ele>949.16998291016</ele>
        <time>2017-10-29T09:45:45Z</time>
      </trkpt>
      <trkpt lat="45.14493" lon="5.59057">
        <ele>949.77099609375</ele>
        <time>2017-10-29T09:45:53Z</time>
      </trkpt>
      <trkpt lat="45.14501" lon="5.59065">
        <ele>951.37097167969</ele>
        <time>2017-10-29T09:45:58Z</time>
      </trkpt>
      <trkpt lat="45.14512" lon="5.59082">
        <ele>950.07098388672</ele>
        <time>2017-10-29T09:46:07Z</time>
      </trkpt>
      <trkpt lat="45.14522" lon="5.591">
        <ele>950.27099609375</ele>
        <time>2017-10-29T09:46:16Z</time>
      </trkpt>
      <trkpt lat="45.14536" lon="5.59112">
        <ele>955.07098388672</ele>
        <time>2017-10-29T09:46:24Z</time>
      </trkpt>
      <trkpt lat="45.14552" lon="5.59119">
        <ele>958.57098388672</ele>
        <time>2017-10-29T09:46:32Z</time>
      </trkpt>
      <trkpt lat="45.14568" lon="5.5912">
        <ele>960.77099609375</ele>
        <time>2017-10-29T09:46:39Z</time>
      </trkpt>
      <trkpt lat="45.14585" lon="5.5912">
        <ele>961.67102050781</ele>
        <time>2017-10-29T09:46:45Z</time>
      </trkpt>
      <trkpt lat="45.14599" lon="5.59126">
        <ele>962.17102050781</ele>
        <time>2017-10-29T09:46:51Z</time>
      </trkpt>
      <trkpt lat="45.14611" lon="5.59139">
        <ele>960.37097167969</ele>
        <time>2017-10-29T09:46:58Z</time>
      </trkpt>
      <trkpt lat="45.14624" lon="5.59157">
        <ele>960.97100830078</ele>
        <time>2017-10-29T09:47:05Z</time>
      </trkpt>
      <trkpt lat="45.14637" lon="5.59169">
        <ele>961.77099609375</ele>
        <time>2017-10-29T09:47:12Z</time>
      </trkpt>
      <trkpt lat="45.14653" lon="5.59181">
        <ele>963.87097167969</ele>
        <time>2017-10-29T09:47:20Z</time>
      </trkpt>
      <trkpt lat="45.14668" lon="5.59192">
        <ele>966.77099609375</ele>
        <time>2017-10-29T09:47:28Z</time>
      </trkpt>
      <trkpt lat="45.14684" lon="5.59201">
        <ele>969.17102050781</ele>
        <time>2017-10-29T09:47:35Z</time>
      </trkpt>
      <trkpt lat="45.147" lon="5.59212">
        <ele>966.17102050781</ele>
        <time>2017-10-29T09:47:42Z</time>
      </trkpt>
      <trkpt lat="45.14714" lon="5.59221">
        <ele>965.07098388672</ele>
        <time>2017-10-29T09:47:49Z</time>
      </trkpt>
      <trkpt lat="45.14729" lon="5.59235">
        <ele>965.97100830078</ele>
        <time>2017-10-29T09:47:57Z</time>
      </trkpt>
      <trkpt lat="45.14744" lon="5.59247">
        <ele>967.37097167969</ele>
        <time>2017-10-29T09:48:03Z</time>
      </trkpt>
      <trkpt lat="45.14759" lon="5.59261">
        <ele>967.97100830078</ele>
        <time>2017-10-29T09:48:09Z</time>
      </trkpt>
      <trkpt lat="45.14771" lon="5.59274">
        <ele>968.27099609375</ele>
        <time>2017-10-29T09:48:15Z</time>
      </trkpt>
      <trkpt lat="45.14785" lon="5.59287">
        <ele>969.07202148438</ele>
        <time>2017-10-29T09:48:22Z</time>
      </trkpt>
      <trkpt lat="45.14798" lon="5.59299">
        <ele>971.47198486328</ele>
        <time>2017-10-29T09:48:28Z</time>
      </trkpt>
      <trkpt lat="45.14811" lon="5.59312">
        <ele>973.57202148438</ele>
        <time>2017-10-29T09:48:34Z</time>
      </trkpt>
      <trkpt lat="45.14825" lon="5.59323">
        <ele>975.17199707031</ele>
        <time>2017-10-29T09:48:40Z</time>
      </trkpt>
      <trkpt lat="45.14839" lon="5.59339">
        <ele>973.67199707031</ele>
        <time>2017-10-29T09:48:48Z</time>
      </trkpt>
      <trkpt lat="45.14851" lon="5.59358">
        <ele>972.87200927734</ele>
        <time>2017-10-29T09:48:56Z</time>
      </trkpt>
      <trkpt lat="45.14862" lon="5.59375">
        <ele>975.97198486328</ele>
        <time>2017-10-29T09:49:02Z</time>
      </trkpt>
      <trkpt lat="45.14875" lon="5.59392">
        <ele>977.67199707031</ele>
        <time>2017-10-29T09:49:08Z</time>
      </trkpt>
      <trkpt lat="45.14887" lon="5.59409">
        <ele>974.87200927734</ele>
        <time>2017-10-29T09:49:14Z</time>
      </trkpt>
      <trkpt lat="45.149" lon="5.59423">
        <ele>975.27197265625</ele>
        <time>2017-10-29T09:49:20Z</time>
      </trkpt>
      <trkpt lat="45.14915" lon="5.59438">
        <ele>977.27197265625</ele>
        <time>2017-10-29T09:49:26Z</time>
      </trkpt>
      <trkpt lat="45.14931" lon="5.59454">
        <ele>978.87200927734</ele>
        <time>2017-10-29T09:49:32Z</time>
      </trkpt>
      <trkpt lat="45.14947" lon="5.59469">
        <ele>976.67199707031</ele>
        <time>2017-10-29T09:49:39Z</time>
      </trkpt>
      <trkpt lat="45.1497" lon="5.59478">
        <ele>981.37200927734</ele>
        <time>2017-10-29T09:49:45Z</time>
      </trkpt>
      <trkpt lat="45.14994" lon="5.59471">
        <ele>985.37200927734</ele>
        <time>2017-10-29T09:49:52Z</time>
      </trkpt>
      <trkpt lat="45.1501" lon="5.59465">
        <ele>985.97198486328</ele>
        <time>2017-10-29T09:49:58Z</time>
      </trkpt>
      <trkpt lat="45.15028" lon="5.59459">
        <ele>987.37200927734</ele>
        <time>2017-10-29T09:50:06Z</time>
      </trkpt>
      <trkpt lat="45.15046" lon="5.59454">
        <ele>989.37200927734</ele>
        <time>2017-10-29T09:50:14Z</time>
      </trkpt>
      <trkpt lat="45.15063" lon="5.59451">
        <ele>991.97198486328</ele>
        <time>2017-10-29T09:50:22Z</time>
      </trkpt>
      <trkpt lat="45.1508" lon="5.59455">
        <ele>993.27197265625</ele>
        <time>2017-10-29T09:50:30Z</time>
      </trkpt>
      <trkpt lat="45.15093" lon="5.59469">
        <ele>991.47198486328</ele>
        <time>2017-10-29T09:50:38Z</time>
      </trkpt>
      <trkpt lat="45.15105" lon="5.59484">
        <ele>988.57202148438</ele>
        <time>2017-10-29T09:50:45Z</time>
      </trkpt>
      <trkpt lat="45.15112" lon="5.59491">
        <ele>985.67297363281</ele>
        <time>2017-10-29T09:50:50Z</time>
      </trkpt>
      <trkpt lat="45.15118" lon="5.59499">
        <ele>983.97302246094</ele>
        <time>2017-10-29T09:50:55Z</time>
      </trkpt>
      <trkpt lat="45.15131" lon="5.59507">
        <ele>983.67297363281</ele>
        <time>2017-10-29T09:51:03Z</time>
      </trkpt>
      <trkpt lat="45.15147" lon="5.59514">
        <ele>986.07299804688</ele>
        <time>2017-10-29T09:51:10Z</time>
      </trkpt>
      <trkpt lat="45.15162" lon="5.59525">
        <ele>987.97302246094</ele>
        <time>2017-10-29T09:51:18Z</time>
      </trkpt>
      <trkpt lat="45.15177" lon="5.59532">
        <ele>990.67297363281</ele>
        <time>2017-10-29T09:51:24Z</time>
      </trkpt>
      <trkpt lat="45.15193" lon="5.59535">
        <ele>994.27301025391</ele>
        <time>2017-10-29T09:51:30Z</time>
      </trkpt>
      <trkpt lat="45.1521" lon="5.59542">
        <ele>997.37298583984</ele>
        <time>2017-10-29T09:51:38Z</time>
      </trkpt>
      <trkpt lat="45.15225" lon="5.59545">
        <ele>1001.4730224609</ele>
        <time>2017-10-29T09:51:46Z</time>
      </trkpt>
      <trkpt lat="45.15242" lon="5.59543">
        <ele>1003.8729858398</ele>
        <time>2017-10-29T09:51:54Z</time>
      </trkpt>
      <trkpt lat="45.15255" lon="5.59557">
        <ele>1004.4730224609</ele>
        <time>2017-10-29T09:52:02Z</time>
      </trkpt>
      <trkpt lat="45.15258" lon="5.5958">
        <ele>1002.8729858398</ele>
        <time>2017-10-29T09:52:10Z</time>
      </trkpt>
      <trkpt lat="45.15267" lon="5.59599">
        <ele>1003.8729858398</ele>
        <time>2017-10-29T09:52:18Z</time>
      </trkpt>
      <trkpt lat="45.15279" lon="5.59618">
        <ele>1007.1729736328</ele>
        <time>2017-10-29T09:52:26Z</time>
      </trkpt>
      <trkpt lat="45.15292" lon="5.59631">
        <ele>1008.4730224609</ele>
        <time>2017-10-29T09:52:34Z</time>
      </trkpt>
      <trkpt lat="45.15308" lon="5.59639">
        <ele>1012.1729736328</ele>
        <time>2017-10-29T09:52:41Z</time>
      </trkpt>
      <trkpt lat="45.15325" lon="5.59649">
        <ele>1015.0729980469</ele>
        <time>2017-10-29T09:52:48Z</time>
      </trkpt>
      <trkpt lat="45.15341" lon="5.5966">
        <ele>1016.9730224609</ele>
        <time>2017-10-29T09:52:56Z</time>
      </trkpt>
      <trkpt lat="45.15357" lon="5.59667">
        <ele>1018.2730102539</ele>
        <time>2017-10-29T09:53:03Z</time>
      </trkpt>
      <trkpt lat="45.15372" lon="5.59673">
        <ele>1019.2730102539</ele>
        <time>2017-10-29T09:53:10Z</time>
      </trkpt>
      <trkpt lat="45.15387" lon="5.59683">
        <ele>1020.7730102539</ele>
        <time>2017-10-29T09:53:18Z</time>
      </trkpt>
      <trkpt lat="45.15403" lon="5.59691">
        <ele>1019.5729980469</ele>
        <time>2017-10-29T09:53:26Z</time>
      </trkpt>
      <trkpt lat="45.15419" lon="5.59693">
        <ele>1020.5729980469</ele>
        <time>2017-10-29T09:53:34Z</time>
      </trkpt>
      <trkpt lat="45.15434" lon="5.59688">
        <ele>1022.2739868164</ele>
        <time>2017-10-29T09:53:42Z</time>
      </trkpt>
      <trkpt lat="45.15449" lon="5.59677">
        <ele>1018.5739746094</ele>
        <time>2017-10-29T09:53:49Z</time>
      </trkpt>
      <trkpt lat="45.15466" lon="5.59674">
        <ele>1014.8740234375</ele>
        <time>2017-10-29T09:53:57Z</time>
      </trkpt>
      <trkpt lat="45.15471" lon="5.59695">
        <ele>1014.0739746094</ele>
        <time>2017-10-29T09:54:02Z</time>
      </trkpt>
      <trkpt lat="45.15473" lon="5.59719">
        <ele>1015.2739868164</ele>
        <time>2017-10-29T09:54:09Z</time>
      </trkpt>
      <trkpt lat="45.15475" lon="5.59742">
        <ele>1016.7739868164</ele>
        <time>2017-10-29T09:54:17Z</time>
      </trkpt>
      <trkpt lat="45.15478" lon="5.59764">
        <ele>1017.1740112305</ele>
        <time>2017-10-29T09:54:25Z</time>
      </trkpt>
      <trkpt lat="45.15485" lon="5.59785">
        <ele>1017.5739746094</ele>
        <time>2017-10-29T09:54:33Z</time>
      </trkpt>
      <trkpt lat="45.15501" lon="5.59797">
        <ele>1019.9739990234</ele>
        <time>2017-10-29T09:54:41Z</time>
      </trkpt>
      <trkpt lat="45.15507" lon="5.59802">
        <ele>1020.3740234375</ele>
        <time>2017-10-29T09:54:46Z</time>
      </trkpt>
      <trkpt lat="45.15515" lon="5.59807">
        <ele>1021.4739990234</ele>
        <time>2017-10-29T09:54:52Z</time>
      </trkpt>
      <trkpt lat="45.15524" lon="5.59809">
        <ele>1022.2739868164</ele>
        <time>2017-10-29T09:54:57Z</time>
      </trkpt>
      <trkpt lat="45.1553" lon="5.59792">
        <ele>1023.4739990234</ele>
        <time>2017-10-29T09:55:04Z</time>
      </trkpt>
      <trkpt lat="45.15527" lon="5.59771">
        <ele>1025.2740478516</ele>
        <time>2017-10-29T09:55:12Z</time>
      </trkpt>
      <trkpt lat="45.15526" lon="5.59761">
        <ele>1026.2740478516</ele>
        <time>2017-10-29T09:55:17Z</time>
      </trkpt>
      <trkpt lat="45.15525" lon="5.5975">
        <ele>1028.3740234375</ele>
        <time>2017-10-29T09:55:22Z</time>
      </trkpt>
      <trkpt lat="45.15525" lon="5.59727">
        <ele>1035.6739501953</ele>
        <time>2017-10-29T09:55:31Z</time>
      </trkpt>
      <trkpt lat="45.15535" lon="5.59716">
        <ele>1037.2740478516</ele>
        <time>2017-10-29T09:55:40Z</time>
      </trkpt>
      <trkpt lat="45.15537" lon="5.59728">
        <ele>1036.1739501953</ele>
        <time>2017-10-29T09:55:45Z</time>
      </trkpt>
      <trkpt lat="45.15537" lon="5.59739">
        <ele>1035.1739501953</ele>
        <time>2017-10-29T09:55:51Z</time>
      </trkpt>
      <trkpt lat="45.15551" lon="5.59751">
        <ele>1034.4739990234</ele>
        <time>2017-10-29T09:55:59Z</time>
      </trkpt>
      <trkpt lat="45.15566" lon="5.5976">
        <ele>1036.5739746094</ele>
        <time>2017-10-29T09:56:05Z</time>
      </trkpt>
      <trkpt lat="45.15581" lon="5.59769">
        <ele>1040.6739501953</ele>
        <time>2017-10-29T09:56:11Z</time>
      </trkpt>
      <trkpt lat="45.15589" lon="5.59769">
        <ele>1043.5739746094</ele>
        <time>2017-10-29T09:56:17Z</time>
      </trkpt>
      <trkpt lat="45.15597" lon="5.59772">
        <ele>1043.0739746094</ele>
        <time>2017-10-29T09:56:22Z</time>
      </trkpt>
      <trkpt lat="45.15604" lon="5.59769">
        <ele>1043.8740234375</ele>
        <time>2017-10-29T09:56:27Z</time>
      </trkpt>
      <trkpt lat="45.15617" lon="5.59758">
        <ele>1044.6739501953</ele>
        <time>2017-10-29T09:56:34Z</time>
      </trkpt>
      <trkpt lat="45.15629" lon="5.59743">
        <ele>1045.7740478516</ele>
        <time>2017-10-29T09:56:42Z</time>
      </trkpt>
      <trkpt lat="45.15643" lon="5.59733">
        <ele>1046.6739501953</ele>
        <time>2017-10-29T09:56:50Z</time>
      </trkpt>
      <trkpt lat="45.1566" lon="5.59736">
        <ele>1048.2740478516</ele>
        <time>2017-10-29T09:57:00Z</time>
      </trkpt>
      <trkpt lat="45.15677" lon="5.59737">
        <ele>1045.8740234375</ele>
        <time>2017-10-29T09:57:09Z</time>
      </trkpt>
      <trkpt lat="45.15692" lon="5.59751">
        <ele>1045.4739990234</ele>
        <time>2017-10-29T09:57:18Z</time>
      </trkpt>
      <trkpt lat="45.15699" lon="5.59757">
        <ele>1044.8740234375</ele>
        <time>2017-10-29T09:57:24Z</time>
      </trkpt>
      <trkpt lat="45.15709" lon="5.59773">
        <ele>1043.6739501953</ele>
        <time>2017-10-29T09:57:32Z</time>
      </trkpt>
      <trkpt lat="45.15707" lon="5.5979">
        <ele>1045.4739990234</ele>
        <time>2017-10-29T09:57:46Z</time>
      </trkpt>
      <trkpt lat="45.157" lon="5.59792">
        <ele>1046.2740478516</ele>
        <time>2017-10-29T09:57:51Z</time>
      </trkpt>
      <trkpt lat="45.15687" lon="5.59807">
        <ele>1049.5739746094</ele>
        <time>2017-10-29T09:57:56Z</time>
      </trkpt>
      <trkpt lat="45.15685" lon="5.59817">
        <ele>1052.4739990234</ele>
        <time>2017-10-29T09:58:01Z</time>
      </trkpt>
      <trkpt lat="45.15692" lon="5.59826">
        <ele>1054.4739990234</ele>
        <time>2017-10-29T09:58:06Z</time>
      </trkpt>
      <trkpt lat="45.15705" lon="5.5984">
        <ele>1056.9739990234</ele>
        <time>2017-10-29T09:58:15Z</time>
      </trkpt>
      <trkpt lat="45.1572" lon="5.59852">
        <ele>1062.2740478516</ele>
        <time>2017-10-29T09:58:23Z</time>
      </trkpt>
      <trkpt lat="45.15726" lon="5.59859">
        <ele>1064.7740478516</ele>
        <time>2017-10-29T09:58:28Z</time>
      </trkpt>
      <trkpt lat="45.15739" lon="5.59873">
        <ele>1065.2740478516</ele>
        <time>2017-10-29T09:58:36Z</time>
      </trkpt>
      <trkpt lat="45.15754" lon="5.59885">
        <ele>1066.0739746094</ele>
        <time>2017-10-29T09:58:44Z</time>
      </trkpt>
      <trkpt lat="45.15769" lon="5.59894">
        <ele>1068.1750488281</ele>
        <time>2017-10-29T09:58:53Z</time>
      </trkpt>
      <trkpt lat="45.15784" lon="5.59907">
        <ele>1072.7750244141</ele>
        <time>2017-10-29T09:59:01Z</time>
      </trkpt>
      <trkpt lat="45.15798" lon="5.59919">
        <ele>1073.1750488281</ele>
        <time>2017-10-29T09:59:11Z</time>
      </trkpt>
      <trkpt lat="45.15812" lon="5.5993">
        <ele>1075.4749755859</ele>
        <time>2017-10-29T09:59:18Z</time>
      </trkpt>
      <trkpt lat="45.1582" lon="5.59932">
        <ele>1075.7750244141</ele>
        <time>2017-10-29T09:59:23Z</time>
      </trkpt>
      <trkpt lat="45.15836" lon="5.59943">
        <ele>1077.1750488281</ele>
        <time>2017-10-29T09:59:30Z</time>
      </trkpt>
      <trkpt lat="45.1585" lon="5.59954">
        <ele>1077.0749511719</ele>
        <time>2017-10-29T09:59:38Z</time>
      </trkpt>
      <trkpt lat="45.15858" lon="5.59959">
        <ele>1078.1750488281</ele>
        <time>2017-10-29T09:59:43Z</time>
      </trkpt>
      <trkpt lat="45.15872" lon="5.59967">
        <ele>1079.5749511719</ele>
        <time>2017-10-29T09:59:51Z</time>
      </trkpt>
      <trkpt lat="45.1588" lon="5.59967">
        <ele>1078.7750244141</ele>
        <time>2017-10-29T09:59:56Z</time>
      </trkpt>
      <trkpt lat="45.15895" lon="5.59971">
        <ele>1081.2750244141</ele>
        <time>2017-10-29T10:00:03Z</time>
      </trkpt>
      <trkpt lat="45.1591" lon="5.59972">
        <ele>1089.875</ele>
        <time>2017-10-29T10:00:12Z</time>
      </trkpt>
      <trkpt lat="45.15918" lon="5.59974">
        <ele>1092.2750244141</ele>
        <time>2017-10-29T10:00:17Z</time>
      </trkpt>
      <trkpt lat="45.15925" lon="5.59974">
        <ele>1093.6750488281</ele>
        <time>2017-10-29T10:00:22Z</time>
      </trkpt>
      <trkpt lat="45.15934" lon="5.59972">
        <ele>1095.6750488281</ele>
        <time>2017-10-29T10:00:27Z</time>
      </trkpt>
      <trkpt lat="45.15941" lon="5.5997">
        <ele>1096.1750488281</ele>
        <time>2017-10-29T10:00:32Z</time>
      </trkpt>
      <trkpt lat="45.1595" lon="5.59972">
        <ele>1096.7750244141</ele>
        <time>2017-10-29T10:00:38Z</time>
      </trkpt>
      <trkpt lat="45.15957" lon="5.59974">
        <ele>1095.875</ele>
        <time>2017-10-29T10:00:43Z</time>
      </trkpt>
      <trkpt lat="45.15965" lon="5.59976">
        <ele>1095.6750488281</ele>
        <time>2017-10-29T10:00:48Z</time>
      </trkpt>
      <trkpt lat="45.15979" lon="5.59982">
        <ele>1096.0749511719</ele>
        <time>2017-10-29T10:00:56Z</time>
      </trkpt>
      <trkpt lat="45.15987" lon="5.59981">
        <ele>1099.375</ele>
        <time>2017-10-29T10:01:01Z</time>
      </trkpt>
      <trkpt lat="45.15994" lon="5.59983">
        <ele>1097.9749755859</ele>
        <time>2017-10-29T10:01:06Z</time>
      </trkpt>
      <trkpt lat="45.15999" lon="5.59992">
        <ele>1100.375</ele>
        <time>2017-10-29T10:01:13Z</time>
      </trkpt>
      <trkpt lat="45.16007" lon="5.59999">
        <ele>1101.6750488281</ele>
        <time>2017-10-29T10:01:18Z</time>
      </trkpt>
      <trkpt lat="45.16021" lon="5.60009">
        <ele>1104.875</ele>
        <time>2017-10-29T10:01:26Z</time>
      </trkpt>
      <trkpt lat="45.16037" lon="5.60013">
        <ele>1105.875</ele>
        <time>2017-10-29T10:01:35Z</time>
      </trkpt>
      <trkpt lat="45.16045" lon="5.60012">
        <ele>1107.4749755859</ele>
        <time>2017-10-29T10:01:40Z</time>
      </trkpt>
      <trkpt lat="45.16051" lon="5.60007">
        <ele>1117.5749511719</ele>
        <time>2017-10-29T10:03:46Z</time>
      </trkpt>
      <trkpt lat="45.16065" lon="5.59995">
        <ele>1120.2750244141</ele>
        <time>2017-10-29T10:03:53Z</time>
      </trkpt>
      <trkpt lat="45.16078" lon="5.59983">
        <ele>1122.375</ele>
        <time>2017-10-29T10:04:01Z</time>
      </trkpt>
      <trkpt lat="45.16088" lon="5.59966">
        <ele>1123.1750488281</ele>
        <time>2017-10-29T10:04:11Z</time>
      </trkpt>
      <trkpt lat="45.16091" lon="5.59954">
        <ele>1121.4749755859</ele>
        <time>2017-10-29T10:04:16Z</time>
      </trkpt>
      <trkpt lat="45.16099" lon="5.59934">
        <ele>1122.7750244141</ele>
        <time>2017-10-29T10:04:25Z</time>
      </trkpt>
      <trkpt lat="45.16103" lon="5.59923">
        <ele>1123.1750488281</ele>
        <time>2017-10-29T10:04:31Z</time>
      </trkpt>
      <trkpt lat="45.16109" lon="5.59915">
        <ele>1125.4749755859</ele>
        <time>2017-10-29T10:04:36Z</time>
      </trkpt>
      <trkpt lat="45.16116" lon="5.59912">
        <ele>1124.1750488281</ele>
        <time>2017-10-29T10:04:41Z</time>
      </trkpt>
      <trkpt lat="45.1613" lon="5.59903">
        <ele>1126.7750244141</ele>
        <time>2017-10-29T10:04:50Z</time>
      </trkpt>
      <trkpt lat="45.16147" lon="5.59903">
        <ele>1128.0749511719</ele>
        <time>2017-10-29T10:04:59Z</time>
      </trkpt>
      <trkpt lat="45.16161" lon="5.59898">
        <ele>1127.5749511719</ele>
        <time>2017-10-29T10:05:07Z</time>
      </trkpt>
      <trkpt lat="45.16176" lon="5.59889">
        <ele>1126.4749755859</ele>
        <time>2017-10-29T10:05:15Z</time>
      </trkpt>
      <trkpt lat="45.1618" lon="5.59869">
        <ele>1129.2750244141</ele>
        <time>2017-10-29T10:05:21Z</time>
      </trkpt>
      <trkpt lat="45.16177" lon="5.59846">
        <ele>1131.4749755859</ele>
        <time>2017-10-29T10:05:30Z</time>
      </trkpt>
      <trkpt lat="45.1617" lon="5.59827">
        <ele>1134.875</ele>
        <time>2017-10-29T10:05:39Z</time>
      </trkpt>
      <trkpt lat="45.16171" lon="5.59815">
        <ele>1137.4749755859</ele>
        <time>2017-10-29T10:05:44Z</time>
      </trkpt>
      <trkpt lat="45.16171" lon="5.59804">
        <ele>1139.1750488281</ele>
        <time>2017-10-29T10:05:49Z</time>
      </trkpt>
      <trkpt lat="45.16173" lon="5.59792">
        <ele>1140.0749511719</ele>
        <time>2017-10-29T10:05:55Z</time>
      </trkpt>
      <trkpt lat="45.16176" lon="5.59782">
        <ele>1141.7750244141</ele>
        <time>2017-10-29T10:06:01Z</time>
      </trkpt>
      <trkpt lat="45.1618" lon="5.59774">
        <ele>1142.5749511719</ele>
        <time>2017-10-29T10:06:06Z</time>
      </trkpt>
      <trkpt lat="45.16187" lon="5.59767">
        <ele>1144.4749755859</ele>
        <time>2017-10-29T10:06:12Z</time>
      </trkpt>
      <trkpt lat="45.16195" lon="5.59763">
        <ele>1147.0749511719</ele>
        <time>2017-10-29T10:06:18Z</time>
      </trkpt>
      <trkpt lat="45.16211" lon="5.59762">
        <ele>1149.375</ele>
        <time>2017-10-29T10:06:27Z</time>
      </trkpt>
      <trkpt lat="45.16219" lon="5.59759">
        <ele>1151.375</ele>
        <time>2017-10-29T10:06:32Z</time>
      </trkpt>
      <trkpt lat="45.16226" lon="5.59754">
        <ele>1151.6750488281</ele>
        <time>2017-10-29T10:06:37Z</time>
      </trkpt>
      <trkpt lat="45.16233" lon="5.59749">
        <ele>1153.2750244141</ele>
        <time>2017-10-29T10:06:42Z</time>
      </trkpt>
      <trkpt lat="45.16241" lon="5.59743">
        <ele>1152.875</ele>
        <time>2017-10-29T10:06:47Z</time>
      </trkpt>
      <trkpt lat="45.16248" lon="5.59738">
        <ele>1152.4749755859</ele>
        <time>2017-10-29T10:06:52Z</time>
      </trkpt>
      <trkpt lat="45.16255" lon="5.59731">
        <ele>1152.0749511719</ele>
        <time>2017-10-29T10:06:57Z</time>
      </trkpt>
      <trkpt lat="45.1626" lon="5.59722">
        <ele>1153.6750488281</ele>
        <time>2017-10-29T10:07:02Z</time>
      </trkpt>
      <trkpt lat="45.16273" lon="5.59708">
        <ele>1155.5749511719</ele>
        <time>2017-10-29T10:07:11Z</time>
      </trkpt>
      <trkpt lat="45.16289" lon="5.5971">
        <ele>1155.375</ele>
        <time>2017-10-29T10:07:20Z</time>
      </trkpt>
      <trkpt lat="45.16295" lon="5.59719">
        <ele>1156.875</ele>
        <time>2017-10-29T10:07:29Z</time>
      </trkpt>
      <trkpt lat="45.16302" lon="5.59726">
        <ele>1157.1750488281</ele>
        <time>2017-10-29T10:07:34Z</time>
      </trkpt>
      <trkpt lat="45.16316" lon="5.59734">
        <ele>1158.9759521484</ele>
        <time>2017-10-29T10:07:42Z</time>
      </trkpt>
      <trkpt lat="45.16325" lon="5.59738">
        <ele>1160.0760498047</ele>
        <time>2017-10-29T10:07:47Z</time>
      </trkpt>
      <trkpt lat="45.16333" lon="5.59739">
        <ele>1160.1760253906</ele>
        <time>2017-10-29T10:07:52Z</time>
      </trkpt>
      <trkpt lat="45.1634" lon="5.59738">
        <ele>1164.2760009766</ele>
        <time>2017-10-29T10:07:58Z</time>
      </trkpt>
      <trkpt lat="45.16349" lon="5.59738">
        <ele>1166.1760253906</ele>
        <time>2017-10-29T10:08:03Z</time>
      </trkpt>
      <trkpt lat="45.16356" lon="5.59737">
        <ele>1167.5760498047</ele>
        <time>2017-10-29T10:08:08Z</time>
      </trkpt>
      <trkpt lat="45.16364" lon="5.59739">
        <ele>1170.0760498047</ele>
        <time>2017-10-29T10:08:14Z</time>
      </trkpt>
      <trkpt lat="45.16371" lon="5.59741">
        <ele>1172.7760009766</ele>
        <time>2017-10-29T10:08:19Z</time>
      </trkpt>
      <trkpt lat="45.16379" lon="5.59739">
        <ele>1174.7760009766</ele>
        <time>2017-10-29T10:08:25Z</time>
      </trkpt>
      <trkpt lat="45.16386" lon="5.59735">
        <ele>1175.7760009766</ele>
        <time>2017-10-29T10:08:31Z</time>
      </trkpt>
      <trkpt lat="45.16389" lon="5.59725">
        <ele>1176.2760009766</ele>
        <time>2017-10-29T10:08:38Z</time>
      </trkpt>
      <trkpt lat="45.16384" lon="5.59717">
        <ele>1174.1760253906</ele>
        <time>2017-10-29T10:08:45Z</time>
      </trkpt>
      <trkpt lat="45.1638" lon="5.59709">
        <ele>1176.6760253906</ele>
        <time>2017-10-29T10:08:56Z</time>
      </trkpt>
      <trkpt lat="45.16375" lon="5.59701">
        <ele>1180.1760253906</ele>
        <time>2017-10-29T10:09:39Z</time>
      </trkpt>
      <trkpt lat="45.1637" lon="5.59692">
        <ele>1180.9759521484</ele>
        <time>2017-10-29T10:09:50Z</time>
      </trkpt>
      <trkpt lat="45.16365" lon="5.59683">
        <ele>1181.5760498047</ele>
        <time>2017-10-29T10:09:56Z</time>
      </trkpt>
      <trkpt lat="45.1636" lon="5.59674">
        <ele>1182.5760498047</ele>
        <time>2017-10-29T10:10:02Z</time>
      </trkpt>
      <trkpt lat="45.16354" lon="5.59666">
        <ele>1183.8759765625</ele>
        <time>2017-10-29T10:10:08Z</time>
      </trkpt>
      <trkpt lat="45.1635" lon="5.59655">
        <ele>1183.4749755859</ele>
        <time>2017-10-29T10:10:14Z</time>
      </trkpt>
      <trkpt lat="45.16345" lon="5.59647">
        <ele>1183.5749511719</ele>
        <time>2017-10-29T10:10:19Z</time>
      </trkpt>
      <trkpt lat="45.16341" lon="5.59637">
        <ele>1183.875</ele>
        <time>2017-10-29T10:10:25Z</time>
      </trkpt>
      <trkpt lat="45.16334" lon="5.59629">
        <ele>1185.875</ele>
        <time>2017-10-29T10:10:31Z</time>
      </trkpt>
      <trkpt lat="45.16329" lon="5.59621">
        <ele>1185.7750244141</ele>
        <time>2017-10-29T10:10:36Z</time>
      </trkpt>
      <trkpt lat="45.16324" lon="5.59612">
        <ele>1185.0749511719</ele>
        <time>2017-10-29T10:10:41Z</time>
      </trkpt>
      <trkpt lat="45.16319" lon="5.59605">
        <ele>1184.875</ele>
        <time>2017-10-29T10:10:46Z</time>
      </trkpt>
      <trkpt lat="45.16312" lon="5.59597">
        <ele>1186.7750244141</ele>
        <time>2017-10-29T10:10:52Z</time>
      </trkpt>
      <trkpt lat="45.16306" lon="5.5959">
        <ele>1189.7750244141</ele>
        <time>2017-10-29T10:10:57Z</time>
      </trkpt>
      <trkpt lat="45.16301" lon="5.59582">
        <ele>1190.5749511719</ele>
        <time>2017-10-29T10:11:02Z</time>
      </trkpt>
      <trkpt lat="45.16295" lon="5.59572">
        <ele>1189.875</ele>
        <time>2017-10-29T10:11:07Z</time>
      </trkpt>
      <trkpt lat="45.16283" lon="5.59559">
        <ele>1187.875</ele>
        <time>2017-10-29T10:11:15Z</time>
      </trkpt>
      <trkpt lat="45.16269" lon="5.5955">
        <ele>1185.375</ele>
        <time>2017-10-29T10:11:27Z</time>
      </trkpt>
      <trkpt lat="45.16259" lon="5.59548">
        <ele>1186.6750488281</ele>
        <time>2017-10-29T10:11:32Z</time>
      </trkpt>
      <trkpt lat="45.16252" lon="5.59542">
        <ele>1187.7750244141</ele>
        <time>2017-10-29T10:11:37Z</time>
      </trkpt>
      <trkpt lat="45.16238" lon="5.59531">
        <ele>1191.9749755859</ele>
        <time>2017-10-29T10:11:46Z</time>
      </trkpt>
      <trkpt lat="45.16233" lon="5.59524">
        <ele>1193.6750488281</ele>
        <time>2017-10-29T10:11:51Z</time>
      </trkpt>
      <trkpt lat="45.1622" lon="5.59512">
        <ele>1196.7750244141</ele>
        <time>2017-10-29T10:12:00Z</time>
      </trkpt>
      <trkpt lat="45.16214" lon="5.59503">
        <ele>1197.5749511719</ele>
        <time>2017-10-29T10:12:05Z</time>
      </trkpt>
      <trkpt lat="45.1621" lon="5.59492">
        <ele>1197.0749511719</ele>
        <time>2017-10-29T10:12:10Z</time>
      </trkpt>
      <trkpt lat="45.16207" lon="5.59482">
        <ele>1196.6750488281</ele>
        <time>2017-10-29T10:12:15Z</time>
      </trkpt>
      <trkpt lat="45.16201" lon="5.59473">
        <ele>1195.0749511719</ele>
        <time>2017-10-29T10:12:20Z</time>
      </trkpt>
      <trkpt lat="45.16199" lon="5.59463">
        <ele>1196.5749511719</ele>
        <time>2017-10-29T10:12:25Z</time>
      </trkpt>
      <trkpt lat="45.16195" lon="5.59454">
        <ele>1196.0749511719</ele>
        <time>2017-10-29T10:12:30Z</time>
      </trkpt>
      <trkpt lat="45.1619" lon="5.59446">
        <ele>1197.6750488281</ele>
        <time>2017-10-29T10:12:36Z</time>
      </trkpt>
      <trkpt lat="45.16184" lon="5.59438">
        <ele>1200.7750244141</ele>
        <time>2017-10-29T10:12:41Z</time>
      </trkpt>
      <trkpt lat="45.16179" lon="5.59426">
        <ele>1202.1750488281</ele>
        <time>2017-10-29T10:12:47Z</time>
      </trkpt>
      <trkpt lat="45.16175" lon="5.59418">
        <ele>1201.6750488281</ele>
        <time>2017-10-29T10:12:53Z</time>
      </trkpt>
      <trkpt lat="45.1617" lon="5.59409">
        <ele>1203.4749755859</ele>
        <time>2017-10-29T10:12:58Z</time>
      </trkpt>
      <trkpt lat="45.16165" lon="5.594">
        <ele>1205.0749511719</ele>
        <time>2017-10-29T10:13:04Z</time>
      </trkpt>
      <trkpt lat="45.16163" lon="5.5939">
        <ele>1203.0749511719</ele>
        <time>2017-10-29T10:13:10Z</time>
      </trkpt>
      <trkpt lat="45.16163" lon="5.59379">
        <ele>1201.9749755859</ele>
        <time>2017-10-29T10:13:16Z</time>
      </trkpt>
      <trkpt lat="45.16151" lon="5.59363">
        <ele>1200.9749755859</ele>
        <time>2017-10-29T10:13:24Z</time>
      </trkpt>
      <trkpt lat="45.16149" lon="5.59352">
        <ele>1199.875</ele>
        <time>2017-10-29T10:13:29Z</time>
      </trkpt>
      <trkpt lat="45.16147" lon="5.59341">
        <ele>1198.6750488281</ele>
        <time>2017-10-29T10:13:36Z</time>
      </trkpt>
      <trkpt lat="45.16141" lon="5.59332">
        <ele>1198.5749511719</ele>
        <time>2017-10-29T10:13:41Z</time>
      </trkpt>
      <trkpt lat="45.16137" lon="5.59322">
        <ele>1200.4749755859</ele>
        <time>2017-10-29T10:13:46Z</time>
      </trkpt>
      <trkpt lat="45.16131" lon="5.59313">
        <ele>1200.5749511719</ele>
        <time>2017-10-29T10:13:52Z</time>
      </trkpt>
      <trkpt lat="45.16116" lon="5.59307">
        <ele>1201.4739990234</ele>
        <time>2017-10-29T10:14:01Z</time>
      </trkpt>
      <trkpt lat="45.16108" lon="5.593">
        <ele>1203.0739746094</ele>
        <time>2017-10-29T10:14:07Z</time>
      </trkpt>
      <trkpt lat="45.161" lon="5.59295">
        <ele>1204.8740234375</ele>
        <time>2017-10-29T10:14:12Z</time>
      </trkpt>
      <trkpt lat="45.16092" lon="5.59292">
        <ele>1207.9739990234</ele>
        <time>2017-10-29T10:14:18Z</time>
      </trkpt>
      <trkpt lat="45.16076" lon="5.59287">
        <ele>1216.3740234375</ele>
        <time>2017-10-29T10:14:25Z</time>
      </trkpt>
      <trkpt lat="45.16068" lon="5.59284">
        <ele>1220.4739990234</ele>
        <time>2017-10-29T10:14:31Z</time>
      </trkpt>
      <trkpt lat="45.16061" lon="5.5928">
        <ele>1222.3740234375</ele>
        <time>2017-10-29T10:14:39Z</time>
      </trkpt>
      <trkpt lat="45.16053" lon="5.59275">
        <ele>1224.3740234375</ele>
        <time>2017-10-29T10:14:44Z</time>
      </trkpt>
      <trkpt lat="45.16046" lon="5.59269">
        <ele>1226.0739746094</ele>
        <time>2017-10-29T10:14:50Z</time>
      </trkpt>
      <trkpt lat="45.1604" lon="5.59261">
        <ele>1227.1739501953</ele>
        <time>2017-10-29T10:14:56Z</time>
      </trkpt>
      <trkpt lat="45.16035" lon="5.59251">
        <ele>1228.3740234375</ele>
        <time>2017-10-29T10:15:03Z</time>
      </trkpt>
      <trkpt lat="45.16032" lon="5.5924">
        <ele>1227.9739990234</ele>
        <time>2017-10-29T10:15:10Z</time>
      </trkpt>
      <trkpt lat="45.16026" lon="5.59233">
        <ele>1226.4739990234</ele>
        <time>2017-10-29T10:15:15Z</time>
      </trkpt>
      <trkpt lat="45.16019" lon="5.59227">
        <ele>1226.6739501953</ele>
        <time>2017-10-29T10:15:20Z</time>
      </trkpt>
      <trkpt lat="45.16017" lon="5.59216">
        <ele>1226.7740478516</ele>
        <time>2017-10-29T10:15:25Z</time>
      </trkpt>
      <trkpt lat="45.16028" lon="5.59213">
        <ele>1234.2740478516</ele>
        <time>2017-10-29T10:15:40Z</time>
      </trkpt>
      <trkpt lat="45.16035" lon="5.59219">
        <ele>1235.2740478516</ele>
        <time>2017-10-29T10:15:46Z</time>
      </trkpt>
      <trkpt lat="45.16043" lon="5.59221">
        <ele>1234.4739990234</ele>
        <time>2017-10-29T10:15:52Z</time>
      </trkpt>
      <trkpt lat="45.1605" lon="5.59223">
        <ele>1232.2740478516</ele>
        <time>2017-10-29T10:15:59Z</time>
      </trkpt>
      <trkpt lat="45.1606" lon="5.59222">
        <ele>1229.4739990234</ele>
        <time>2017-10-29T10:16:04Z</time>
      </trkpt>
      <trkpt lat="45.16076" lon="5.59228">
        <ele>1224.5739746094</ele>
        <time>2017-10-29T10:16:13Z</time>
      </trkpt>
      <trkpt lat="45.16085" lon="5.59226">
        <ele>1223.6739501953</ele>
        <time>2017-10-29T10:16:19Z</time>
      </trkpt>
      <trkpt lat="45.16097" lon="5.5922">
        <ele>1223.9739990234</ele>
        <time>2017-10-29T10:16:31Z</time>
      </trkpt>
      <trkpt lat="45.16103" lon="5.59216">
        <ele>1223.8740234375</ele>
        <time>2017-10-29T10:16:37Z</time>
      </trkpt>
      <trkpt lat="45.16112" lon="5.59212">
        <ele>1223.5739746094</ele>
        <time>2017-10-29T10:16:42Z</time>
      </trkpt>
      <trkpt lat="45.1612" lon="5.59213">
        <ele>1224.5739746094</ele>
        <time>2017-10-29T10:16:47Z</time>
      </trkpt>
      <trkpt lat="45.16128" lon="5.59215">
        <ele>1225.9739990234</ele>
        <time>2017-10-29T10:16:52Z</time>
      </trkpt>
      <trkpt lat="45.16136" lon="5.59211">
        <ele>1227.7740478516</ele>
        <time>2017-10-29T10:16:57Z</time>
      </trkpt>
      <trkpt lat="45.16145" lon="5.59209">
        <ele>1228.3740234375</ele>
        <time>2017-10-29T10:17:02Z</time>
      </trkpt>
      <trkpt lat="45.16152" lon="5.59213">
        <ele>1228.9739990234</ele>
        <time>2017-10-29T10:17:07Z</time>
      </trkpt>
      <trkpt lat="45.16159" lon="5.5921">
        <ele>1229.8740234375</ele>
        <time>2017-10-29T10:17:16Z</time>
      </trkpt>
      <trkpt lat="45.16167" lon="5.59216">
        <ele>1230.9739990234</ele>
        <time>2017-10-29T10:17:23Z</time>
      </trkpt>
      <trkpt lat="45.16175" lon="5.59221">
        <ele>1231.8740234375</ele>
        <time>2017-10-29T10:17:28Z</time>
      </trkpt>
      <trkpt lat="45.16178" lon="5.5923">
        <ele>1233.375</ele>
        <time>2017-10-29T10:17:34Z</time>
      </trkpt>
      <trkpt lat="45.16192" lon="5.59245">
        <ele>1235.0749511719</ele>
        <time>2017-10-29T10:17:43Z</time>
      </trkpt>
      <trkpt lat="45.16207" lon="5.59253">
        <ele>1237.9749755859</ele>
        <time>2017-10-29T10:17:53Z</time>
      </trkpt>
      <trkpt lat="45.16215" lon="5.59255">
        <ele>1239.9749755859</ele>
        <time>2017-10-29T10:18:00Z</time>
      </trkpt>
      <trkpt lat="45.16222" lon="5.59263">
        <ele>1242.7750244141</ele>
        <time>2017-10-29T10:18:06Z</time>
      </trkpt>
      <trkpt lat="45.16229" lon="5.59265">
        <ele>1244.5749511719</ele>
        <time>2017-10-29T10:18:14Z</time>
      </trkpt>
      <trkpt lat="45.16237" lon="5.59265">
        <ele>1245.9749755859</ele>
        <time>2017-10-29T10:18:21Z</time>
      </trkpt>
      <trkpt lat="45.16245" lon="5.59267">
        <ele>1246.7750244141</ele>
        <time>2017-10-29T10:18:27Z</time>
      </trkpt>
      <trkpt lat="45.16254" lon="5.59263">
        <ele>1250.6750488281</ele>
        <time>2017-10-29T10:18:36Z</time>
      </trkpt>
      <trkpt lat="45.1626" lon="5.59268">
        <ele>1251.875</ele>
        <time>2017-10-29T10:18:41Z</time>
      </trkpt>
      <trkpt lat="45.16267" lon="5.59273">
        <ele>1252.6750488281</ele>
        <time>2017-10-29T10:18:46Z</time>
      </trkpt>
      <trkpt lat="45.16275" lon="5.59271">
        <ele>1254.1750488281</ele>
        <time>2017-10-29T10:18:54Z</time>
      </trkpt>
      <trkpt lat="45.16283" lon="5.59275">
        <ele>1255.7750244141</ele>
        <time>2017-10-29T10:19:01Z</time>
      </trkpt>
      <trkpt lat="45.1629" lon="5.59279">
        <ele>1257.2750244141</ele>
        <time>2017-10-29T10:19:07Z</time>
      </trkpt>
      <trkpt lat="45.16296" lon="5.59283">
        <ele>1258.1750488281</ele>
        <time>2017-10-29T10:19:12Z</time>
      </trkpt>
      <trkpt lat="45.16303" lon="5.59289">
        <ele>1258.375</ele>
        <time>2017-10-29T10:19:17Z</time>
      </trkpt>
      <trkpt lat="45.1631" lon="5.59295">
        <ele>1259.7750244141</ele>
        <time>2017-10-29T10:19:23Z</time>
      </trkpt>
      <trkpt lat="45.16317" lon="5.59296">
        <ele>1260.0749511719</ele>
        <time>2017-10-29T10:19:28Z</time>
      </trkpt>
      <trkpt lat="45.16324" lon="5.59299">
        <ele>1260.375</ele>
        <time>2017-10-29T10:19:35Z</time>
      </trkpt>
      <trkpt lat="45.16332" lon="5.59294">
        <ele>1261.4749755859</ele>
        <time>2017-10-29T10:19:45Z</time>
      </trkpt>
      <trkpt lat="45.16339" lon="5.59295">
        <ele>1262.375</ele>
        <time>2017-10-29T10:19:51Z</time>
      </trkpt>
      <trkpt lat="45.16348" lon="5.59299">
        <ele>1264.5749511719</ele>
        <time>2017-10-29T10:19:59Z</time>
      </trkpt>
      <trkpt lat="45.16357" lon="5.59301">
        <ele>1266.2750244141</ele>
        <time>2017-10-29T10:20:04Z</time>
      </trkpt>
      <trkpt lat="45.16364" lon="5.59304">
        <ele>1268.2750244141</ele>
        <time>2017-10-29T10:20:09Z</time>
      </trkpt>
      <trkpt lat="45.16377" lon="5.59311">
        <ele>1270.0749511719</ele>
        <time>2017-10-29T10:20:18Z</time>
      </trkpt>
      <trkpt lat="45.16391" lon="5.59315">
        <ele>1274.0749511719</ele>
        <time>2017-10-29T10:20:26Z</time>
      </trkpt>
      <trkpt lat="45.16399" lon="5.59317">
        <ele>1276.1750488281</ele>
        <time>2017-10-29T10:20:31Z</time>
      </trkpt>
      <trkpt lat="45.16406" lon="5.59315">
        <ele>1280.9749755859</ele>
        <time>2017-10-29T10:20:40Z</time>
      </trkpt>
      <trkpt lat="45.16411" lon="5.59307">
        <ele>1282.1750488281</ele>
        <time>2017-10-29T10:20:45Z</time>
      </trkpt>
      <trkpt lat="45.16417" lon="5.59299">
        <ele>1283.1750488281</ele>
        <time>2017-10-29T10:20:51Z</time>
      </trkpt>
      <trkpt lat="45.16422" lon="5.5929">
        <ele>1283.375</ele>
        <time>2017-10-29T10:21:00Z</time>
      </trkpt>
      <trkpt lat="45.16426" lon="5.5928">
        <ele>1283.0749511719</ele>
        <time>2017-10-29T10:21:06Z</time>
      </trkpt>
      <trkpt lat="45.1643" lon="5.59268">
        <ele>1282.0749511719</ele>
        <time>2017-10-29T10:21:13Z</time>
      </trkpt>
      <trkpt lat="45.16435" lon="5.5926">
        <ele>1280.7750244141</ele>
        <time>2017-10-29T10:21:20Z</time>
      </trkpt>
      <trkpt lat="45.16441" lon="5.59253">
        <ele>1279.375</ele>
        <time>2017-10-29T10:21:26Z</time>
      </trkpt>
      <trkpt lat="45.16446" lon="5.59245">
        <ele>1278.2750244141</ele>
        <time>2017-10-29T10:21:31Z</time>
      </trkpt>
      <trkpt lat="45.16453" lon="5.59237">
        <ele>1277.4749755859</ele>
        <time>2017-10-29T10:21:36Z</time>
      </trkpt>
      <trkpt lat="45.16459" lon="5.59229">
        <ele>1277.0749511719</ele>
        <time>2017-10-29T10:21:41Z</time>
      </trkpt>
      <trkpt lat="45.16466" lon="5.59225">
        <ele>1278.875</ele>
        <time>2017-10-29T10:21:46Z</time>
      </trkpt>
      <trkpt lat="45.16466" lon="5.59214">
        <ele>1281.7750244141</ele>
        <time>2017-10-29T10:21:53Z</time>
      </trkpt>
      <trkpt lat="45.1647" lon="5.59204">
        <ele>1283.9749755859</ele>
        <time>2017-10-29T10:21:58Z</time>
      </trkpt>
      <trkpt lat="45.1647" lon="5.59193">
        <ele>1291.875</ele>
        <time>2017-10-29T10:22:07Z</time>
      </trkpt>
      <trkpt lat="45.16473" lon="5.59183">
        <ele>1294.375</ele>
        <time>2017-10-29T10:22:12Z</time>
      </trkpt>
      <trkpt lat="45.16474" lon="5.59159">
        <ele>1294.9749755859</ele>
        <time>2017-10-29T10:22:21Z</time>
      </trkpt>
      <trkpt lat="45.16479" lon="5.5915">
        <ele>1296.5749511719</ele>
        <time>2017-10-29T10:22:27Z</time>
      </trkpt>
      <trkpt lat="45.16481" lon="5.5914">
        <ele>1297.375</ele>
        <time>2017-10-29T10:22:32Z</time>
      </trkpt>
      <trkpt lat="45.16488" lon="5.5912">
        <ele>1297.2750244141</ele>
        <time>2017-10-29T10:22:39Z</time>
      </trkpt>
      <trkpt lat="45.16495" lon="5.59099">
        <ele>1295.375</ele>
        <time>2017-10-29T10:22:47Z</time>
      </trkpt>
      <trkpt lat="45.16496" lon="5.59088">
        <ele>1298.0749511719</ele>
        <time>2017-10-29T10:22:58Z</time>
      </trkpt>
      <trkpt lat="45.16493" lon="5.59077">
        <ele>1298.4749755859</ele>
        <time>2017-10-29T10:23:03Z</time>
      </trkpt>
      <trkpt lat="45.16482" lon="5.59065">
        <ele>1300.1750488281</ele>
        <time>2017-10-29T10:23:11Z</time>
      </trkpt>
      <trkpt lat="45.16478" lon="5.59055">
        <ele>1301.5749511719</ele>
        <time>2017-10-29T10:23:18Z</time>
      </trkpt>
      <trkpt lat="45.16467" lon="5.59044">
        <ele>1298.875</ele>
        <time>2017-10-29T10:23:27Z</time>
      </trkpt>
      <trkpt lat="45.16456" lon="5.59028">
        <ele>1299.5749511719</ele>
        <time>2017-10-29T10:23:35Z</time>
      </trkpt>
      <trkpt lat="45.16447" lon="5.59013">
        <ele>1301.4749755859</ele>
        <time>2017-10-29T10:23:47Z</time>
      </trkpt>
      <trkpt lat="45.16442" lon="5.59006">
        <ele>1301.7750244141</ele>
        <time>2017-10-29T10:23:54Z</time>
      </trkpt>
      <trkpt lat="45.16431" lon="5.58988">
        <ele>1302.375</ele>
        <time>2017-10-29T10:24:03Z</time>
      </trkpt>
      <trkpt lat="45.16427" lon="5.58979">
        <ele>1302.1750488281</ele>
        <time>2017-10-29T10:24:09Z</time>
      </trkpt>
      <trkpt lat="45.1642" lon="5.58975">
        <ele>1303.0749511719</ele>
        <time>2017-10-29T10:24:14Z</time>
      </trkpt>
      <trkpt lat="45.16417" lon="5.58965">
        <ele>1303.375</ele>
        <time>2017-10-29T10:24:19Z</time>
      </trkpt>
      <trkpt lat="45.16412" lon="5.58955">
        <ele>1302.9749755859</ele>
        <time>2017-10-29T10:24:25Z</time>
      </trkpt>
      <trkpt lat="45.16403" lon="5.58938">
        <ele>1304.9749755859</ele>
        <time>2017-10-29T10:24:33Z</time>
      </trkpt>
      <trkpt lat="45.16396" lon="5.58932">
        <ele>1305.1750488281</ele>
        <time>2017-10-29T10:24:38Z</time>
      </trkpt>
      <trkpt lat="45.16394" lon="5.58921">
        <ele>1306.5749511719</ele>
        <time>2017-10-29T10:24:45Z</time>
      </trkpt>
      <trkpt lat="45.16388" lon="5.58913">
        <ele>1307.5749511719</ele>
        <time>2017-10-29T10:24:51Z</time>
      </trkpt>
      <trkpt lat="45.16385" lon="5.58902">
        <ele>1308.2740478516</ele>
        <time>2017-10-29T10:24:56Z</time>
      </trkpt>
      <trkpt lat="45.16378" lon="5.58894">
        <ele>1309.1739501953</ele>
        <time>2017-10-29T10:25:01Z</time>
      </trkpt>
      <trkpt lat="45.16371" lon="5.58874">
        <ele>1312.6739501953</ele>
        <time>2017-10-29T10:25:11Z</time>
      </trkpt>
      <trkpt lat="45.16367" lon="5.58863">
        <ele>1314.4739990234</ele>
        <time>2017-10-29T10:25:17Z</time>
      </trkpt>
      <trkpt lat="45.16357" lon="5.58845">
        <ele>1317.9739990234</ele>
        <time>2017-10-29T10:25:24Z</time>
      </trkpt>
      <trkpt lat="45.16353" lon="5.58835">
        <ele>1321.2740478516</ele>
        <time>2017-10-29T10:25:29Z</time>
      </trkpt>
      <trkpt lat="45.16348" lon="5.58826">
        <ele>1324.1739501953</ele>
        <time>2017-10-29T10:25:34Z</time>
      </trkpt>
      <trkpt lat="45.16346" lon="5.58816">
        <ele>1326.4739990234</ele>
        <time>2017-10-29T10:25:40Z</time>
      </trkpt>
      <trkpt lat="45.16341" lon="5.58806">
        <ele>1327.5739746094</ele>
        <time>2017-10-29T10:25:46Z</time>
      </trkpt>
      <trkpt lat="45.16336" lon="5.58797">
        <ele>1328.2740478516</ele>
        <time>2017-10-29T10:25:53Z</time>
      </trkpt>
      <trkpt lat="45.16325" lon="5.58783">
        <ele>1332.2740478516</ele>
        <time>2017-10-29T10:26:01Z</time>
      </trkpt>
      <trkpt lat="45.16318" lon="5.58776">
        <ele>1334.9739990234</ele>
        <time>2017-10-29T10:26:07Z</time>
      </trkpt>
      <trkpt lat="45.16313" lon="5.58767">
        <ele>1338.7740478516</ele>
        <time>2017-10-29T10:26:14Z</time>
      </trkpt>
      <trkpt lat="45.1631" lon="5.58758">
        <ele>1341.1739501953</ele>
        <time>2017-10-29T10:26:23Z</time>
      </trkpt>
      <trkpt lat="45.16308" lon="5.58748">
        <ele>1341.6739501953</ele>
        <time>2017-10-29T10:28:23Z</time>
      </trkpt>
      <trkpt lat="45.1631" lon="5.58736">
        <ele>1340.7740478516</ele>
        <time>2017-10-29T10:28:29Z</time>
      </trkpt>
      <trkpt lat="45.16313" lon="5.58727">
        <ele>1340.1739501953</ele>
        <time>2017-10-29T10:28:34Z</time>
      </trkpt>
      <trkpt lat="45.16316" lon="5.58706">
        <ele>1338.0739746094</ele>
        <time>2017-10-29T10:28:45Z</time>
      </trkpt>
      <trkpt lat="45.16318" lon="5.58696">
        <ele>1338.3740234375</ele>
        <time>2017-10-29T10:28:50Z</time>
      </trkpt>
      <trkpt lat="45.16327" lon="5.58698">
        <ele>1339.2740478516</ele>
        <time>2017-10-29T10:28:56Z</time>
      </trkpt>
      <trkpt lat="45.16335" lon="5.58699">
        <ele>1338.7740478516</ele>
        <time>2017-10-29T10:29:03Z</time>
      </trkpt>
      <trkpt lat="45.16341" lon="5.58706">
        <ele>1339.2740478516</ele>
        <time>2017-10-29T10:29:09Z</time>
      </trkpt>
      <trkpt lat="45.16348" lon="5.58707">
        <ele>1340.0739746094</ele>
        <time>2017-10-29T10:29:15Z</time>
      </trkpt>
      <trkpt lat="45.16358" lon="5.58702">
        <ele>1344.3740234375</ele>
        <time>2017-10-29T10:29:39Z</time>
      </trkpt>
      <trkpt lat="45.16365" lon="5.58706">
        <ele>1344.5739746094</ele>
        <time>2017-10-29T10:29:45Z</time>
      </trkpt>
      <trkpt lat="45.1637" lon="5.58697">
        <ele>1343.4739990234</ele>
        <time>2017-10-29T10:29:53Z</time>
      </trkpt>
      <trkpt lat="45.16378" lon="5.58694">
        <ele>1342.7740478516</ele>
        <time>2017-10-29T10:30:01Z</time>
      </trkpt>
      <trkpt lat="45.16386" lon="5.58692">
        <ele>1342.2740478516</ele>
        <time>2017-10-29T10:30:19Z</time>
      </trkpt>
      <trkpt lat="45.16392" lon="5.58685">
        <ele>1342.7740478516</ele>
        <time>2017-10-29T10:30:26Z</time>
      </trkpt>
      <trkpt lat="45.16399" lon="5.58685">
        <ele>1343.8740234375</ele>
        <time>2017-10-29T10:30:32Z</time>
      </trkpt>
      <trkpt lat="45.16403" lon="5.58676">
        <ele>1345.8740234375</ele>
        <time>2017-10-29T10:30:43Z</time>
      </trkpt>
      <trkpt lat="45.1641" lon="5.58679">
        <ele>1348.6739501953</ele>
        <time>2017-10-29T10:30:57Z</time>
      </trkpt>
      <trkpt lat="45.16419" lon="5.58683">
        <ele>1349.8740234375</ele>
        <time>2017-10-29T10:31:09Z</time>
      </trkpt>
      <trkpt lat="45.16427" lon="5.58682">
        <ele>1350.6739501953</ele>
        <time>2017-10-29T10:31:16Z</time>
      </trkpt>
      <trkpt lat="45.16435" lon="5.58679">
        <ele>1353.9739990234</ele>
        <time>2017-10-29T10:31:27Z</time>
      </trkpt>
      <trkpt lat="45.16443" lon="5.58681">
        <ele>1357.4739990234</ele>
        <time>2017-10-29T10:31:32Z</time>
      </trkpt>
      <trkpt lat="45.1645" lon="5.58679">
        <ele>1359.8740234375</ele>
        <time>2017-10-29T10:31:37Z</time>
      </trkpt>
      <trkpt lat="45.16458" lon="5.58681">
        <ele>1362.7740478516</ele>
        <time>2017-10-29T10:31:47Z</time>
      </trkpt>
      <trkpt lat="45.16466" lon="5.58684">
        <ele>1365.4739990234</ele>
        <time>2017-10-29T10:31:55Z</time>
      </trkpt>
      <trkpt lat="45.16473" lon="5.5868">
        <ele>1366.5739746094</ele>
        <time>2017-10-29T10:32:03Z</time>
      </trkpt>
      <trkpt lat="45.1648" lon="5.58674">
        <ele>1368.5739746094</ele>
        <time>2017-10-29T10:32:11Z</time>
      </trkpt>
      <trkpt lat="45.16488" lon="5.5867">
        <ele>1370.5739746094</ele>
        <time>2017-10-29T10:32:18Z</time>
      </trkpt>
      <trkpt lat="45.16495" lon="5.58667">
        <ele>1372.9739990234</ele>
        <time>2017-10-29T10:32:28Z</time>
      </trkpt>
      <trkpt lat="45.16504" lon="5.58667">
        <ele>1373.6739501953</ele>
        <time>2017-10-29T10:32:34Z</time>
      </trkpt>
      <trkpt lat="45.16512" lon="5.58662">
        <ele>1373.3740234375</ele>
        <time>2017-10-29T10:32:40Z</time>
      </trkpt>
      <trkpt lat="45.16519" lon="5.58658">
        <ele>1374.5739746094</ele>
        <time>2017-10-29T10:32:49Z</time>
      </trkpt>
      <trkpt lat="45.16526" lon="5.58656">
        <ele>1376.4739990234</ele>
        <time>2017-10-29T10:33:00Z</time>
      </trkpt>
      <trkpt lat="45.16533" lon="5.58653">
        <ele>1374.3740234375</ele>
        <time>2017-10-29T10:33:06Z</time>
      </trkpt>
      <trkpt lat="45.16541" lon="5.58655">
        <ele>1372.8740234375</ele>
        <time>2017-10-29T10:33:12Z</time>
      </trkpt>
      <trkpt lat="45.1655" lon="5.58657">
        <ele>1372.875</ele>
        <time>2017-10-29T10:33:17Z</time>
      </trkpt>
      <trkpt lat="45.16557" lon="5.58653">
        <ele>1374.0749511719</ele>
        <time>2017-10-29T10:33:22Z</time>
      </trkpt>
      <trkpt lat="45.16564" lon="5.58647">
        <ele>1375.0749511719</ele>
        <time>2017-10-29T10:33:27Z</time>
      </trkpt>
      <trkpt lat="45.16571" lon="5.58646">
        <ele>1377.2750244141</ele>
        <time>2017-10-29T10:33:32Z</time>
      </trkpt>
      <trkpt lat="45.16578" lon="5.58643">
        <ele>1381.875</ele>
        <time>2017-10-29T10:33:38Z</time>
      </trkpt>
      <trkpt lat="45.16586" lon="5.58644">
        <ele>1385.0749511719</ele>
        <time>2017-10-29T10:33:45Z</time>
      </trkpt>
      <trkpt lat="45.16594" lon="5.58642">
        <ele>1386.375</ele>
        <time>2017-10-29T10:33:51Z</time>
      </trkpt>
      <trkpt lat="45.16602" lon="5.58643">
        <ele>1388.9749755859</ele>
        <time>2017-10-29T10:33:57Z</time>
      </trkpt>
      <trkpt lat="45.1661" lon="5.58645">
        <ele>1390.1750488281</ele>
        <time>2017-10-29T10:34:03Z</time>
      </trkpt>
      <trkpt lat="45.16618" lon="5.58646">
        <ele>1391.2750244141</ele>
        <time>2017-10-29T10:34:10Z</time>
      </trkpt>
      <trkpt lat="45.16626" lon="5.58642">
        <ele>1392.375</ele>
        <time>2017-10-29T10:34:15Z</time>
      </trkpt>
      <trkpt lat="45.16641" lon="5.58648">
        <ele>1391.4749755859</ele>
        <time>2017-10-29T10:34:25Z</time>
      </trkpt>
      <trkpt lat="45.16648" lon="5.58644">
        <ele>1391.6750488281</ele>
        <time>2017-10-29T10:34:30Z</time>
      </trkpt>
      <trkpt lat="45.16656" lon="5.58644">
        <ele>1392.375</ele>
        <time>2017-10-29T10:34:36Z</time>
      </trkpt>
      <trkpt lat="45.16663" lon="5.58645">
        <ele>1393.2750244141</ele>
        <time>2017-10-29T10:34:42Z</time>
      </trkpt>
      <trkpt lat="45.16672" lon="5.58644">
        <ele>1393.875</ele>
        <time>2017-10-29T10:34:48Z</time>
      </trkpt>
      <trkpt lat="45.16679" lon="5.58641">
        <ele>1396.0749511719</ele>
        <time>2017-10-29T10:34:55Z</time>
      </trkpt>
      <trkpt lat="45.16693" lon="5.5865">
        <ele>1398.1750488281</ele>
        <time>2017-10-29T10:35:04Z</time>
      </trkpt>
      <trkpt lat="45.1671" lon="5.58647">
        <ele>1399.875</ele>
        <time>2017-10-29T10:35:14Z</time>
      </trkpt>
      <trkpt lat="45.16717" lon="5.5864">
        <ele>1401.5749511719</ele>
        <time>2017-10-29T10:35:19Z</time>
      </trkpt>
      <trkpt lat="45.16724" lon="5.58633">
        <ele>1401.6750488281</ele>
        <time>2017-10-29T10:35:27Z</time>
      </trkpt>
      <trkpt lat="45.16732" lon="5.58632">
        <ele>1402.6750488281</ele>
        <time>2017-10-29T10:35:33Z</time>
      </trkpt>
      <trkpt lat="45.16739" lon="5.58631">
        <ele>1402.5749511719</ele>
        <time>2017-10-29T10:35:39Z</time>
      </trkpt>
      <trkpt lat="45.16747" lon="5.58628">
        <ele>1403.1750488281</ele>
        <time>2017-10-29T10:35:47Z</time>
      </trkpt>
      <trkpt lat="45.16753" lon="5.58623">
        <ele>1402.9749755859</ele>
        <time>2017-10-29T10:35:53Z</time>
      </trkpt>
      <trkpt lat="45.16761" lon="5.58622">
        <ele>1403.375</ele>
        <time>2017-10-29T10:35:58Z</time>
      </trkpt>
      <trkpt lat="45.16768" lon="5.58619">
        <ele>1403.4749755859</ele>
        <time>2017-10-29T10:36:03Z</time>
      </trkpt>
      <trkpt lat="45.16776" lon="5.58624">
        <ele>1403.9749755859</ele>
        <time>2017-10-29T10:36:09Z</time>
      </trkpt>
      <trkpt lat="45.16783" lon="5.58623">
        <ele>1404.375</ele>
        <time>2017-10-29T10:36:15Z</time>
      </trkpt>
      <trkpt lat="45.16793" lon="5.58617">
        <ele>1404.2750244141</ele>
        <time>2017-10-29T10:36:20Z</time>
      </trkpt>
      <trkpt lat="45.16801" lon="5.58613">
        <ele>1404.375</ele>
        <time>2017-10-29T10:36:26Z</time>
      </trkpt>
      <trkpt lat="45.1681" lon="5.58614">
        <ele>1404.875</ele>
        <time>2017-10-29T10:36:31Z</time>
      </trkpt>
      <trkpt lat="45.16817" lon="5.58619">
        <ele>1406.5749511719</ele>
        <time>2017-10-29T10:36:36Z</time>
      </trkpt>
      <trkpt lat="45.16833" lon="5.5863">
        <ele>1415.0749511719</ele>
        <time>2017-10-29T10:36:45Z</time>
      </trkpt>
      <trkpt lat="45.16841" lon="5.58634">
        <ele>1419.7750244141</ele>
        <time>2017-10-29T10:36:51Z</time>
      </trkpt>
      <trkpt lat="45.16848" lon="5.58638">
        <ele>1422.0749511719</ele>
        <time>2017-10-29T10:36:56Z</time>
      </trkpt>
      <trkpt lat="45.16855" lon="5.5864">
        <ele>1424.1750488281</ele>
        <time>2017-10-29T10:37:01Z</time>
      </trkpt>
      <trkpt lat="45.16863" lon="5.58643">
        <ele>1424.2750244141</ele>
        <time>2017-10-29T10:37:07Z</time>
      </trkpt>
      <trkpt lat="45.16869" lon="5.58648">
        <ele>1423.9749755859</ele>
        <time>2017-10-29T10:37:13Z</time>
      </trkpt>
      <trkpt lat="45.16877" lon="5.58651">
        <ele>1424.5749511719</ele>
        <time>2017-10-29T10:37:19Z</time>
      </trkpt>
      <trkpt lat="45.16884" lon="5.58655">
        <ele>1425.0749511719</ele>
        <time>2017-10-29T10:37:25Z</time>
      </trkpt>
      <trkpt lat="45.16891" lon="5.58661">
        <ele>1424.9749755859</ele>
        <time>2017-10-29T10:37:30Z</time>
      </trkpt>
      <trkpt lat="45.16899" lon="5.58661">
        <ele>1423.9749755859</ele>
        <time>2017-10-29T10:37:38Z</time>
      </trkpt>
      <trkpt lat="45.16913" lon="5.58664">
        <ele>1427.4749755859</ele>
        <time>2017-10-29T10:37:51Z</time>
      </trkpt>
      <trkpt lat="45.16921" lon="5.58662">
        <ele>1429.0749511719</ele>
        <time>2017-10-29T10:37:57Z</time>
      </trkpt>
      <trkpt lat="45.16928" lon="5.58657">
        <ele>1432.375</ele>
        <time>2017-10-29T10:38:03Z</time>
      </trkpt>
      <trkpt lat="45.16936" lon="5.58658">
        <ele>1432.4749755859</ele>
        <time>2017-10-29T10:38:09Z</time>
      </trkpt>
      <trkpt lat="45.16944" lon="5.58656">
        <ele>1433.9749755859</ele>
        <time>2017-10-29T10:38:14Z</time>
      </trkpt>
      <trkpt lat="45.16952" lon="5.58655">
        <ele>1434.7750244141</ele>
        <time>2017-10-29T10:38:20Z</time>
      </trkpt>
      <trkpt lat="45.1696" lon="5.58656">
        <ele>1435.1750488281</ele>
        <time>2017-10-29T10:38:25Z</time>
      </trkpt>
      <trkpt lat="45.16967" lon="5.58661">
        <ele>1437.4749755859</ele>
        <time>2017-10-29T10:38:31Z</time>
      </trkpt>
      <trkpt lat="45.16975" lon="5.58666">
        <ele>1438.5749511719</ele>
        <time>2017-10-29T10:38:36Z</time>
      </trkpt>
      <trkpt lat="45.16984" lon="5.58685">
        <ele>1438.9759521484</ele>
        <time>2017-10-29T10:38:44Z</time>
      </trkpt>
      <trkpt lat="45.16996" lon="5.58692">
        <ele>1441.9759521484</ele>
        <time>2017-10-29T10:38:55Z</time>
      </trkpt>
      <trkpt lat="45.17003" lon="5.58694">
        <ele>1444.3759765625</ele>
        <time>2017-10-29T10:39:01Z</time>
      </trkpt>
      <trkpt lat="45.17009" lon="5.587">
        <ele>1445.2760009766</ele>
        <time>2017-10-29T10:39:07Z</time>
      </trkpt>
      <trkpt lat="45.17025" lon="5.58706">
        <ele>1442.9759521484</ele>
        <time>2017-10-29T10:39:17Z</time>
      </trkpt>
      <trkpt lat="45.17042" lon="5.58703">
        <ele>1441.0760498047</ele>
        <time>2017-10-29T10:39:24Z</time>
      </trkpt>
      <trkpt lat="45.1705" lon="5.58702">
        <ele>1440.0760498047</ele>
        <time>2017-10-29T10:39:29Z</time>
      </trkpt>
      <trkpt lat="45.17063" lon="5.58689">
        <ele>1439.1760253906</ele>
        <time>2017-10-29T10:39:36Z</time>
      </trkpt>
      <trkpt lat="45.1707" lon="5.58688">
        <ele>1439.3759765625</ele>
        <time>2017-10-29T10:39:41Z</time>
      </trkpt>
      <trkpt lat="45.17078" lon="5.58688">
        <ele>1441.8759765625</ele>
        <time>2017-10-29T10:39:50Z</time>
      </trkpt>
      <trkpt lat="45.17086" lon="5.58687">
        <ele>1442.6760253906</ele>
        <time>2017-10-29T10:39:55Z</time>
      </trkpt>
      <trkpt lat="45.17102" lon="5.58694">
        <ele>1442.1760253906</ele>
        <time>2017-10-29T10:40:03Z</time>
      </trkpt>
      <trkpt lat="45.1711" lon="5.58697">
        <ele>1440.4759521484</ele>
        <time>2017-10-29T10:40:08Z</time>
      </trkpt>
      <trkpt lat="45.17123" lon="5.58691">
        <ele>1442.0760498047</ele>
        <time>2017-10-29T10:40:17Z</time>
      </trkpt>
      <trkpt lat="45.17125" lon="5.58664">
        <ele>1441.9759521484</ele>
        <time>2017-10-29T10:40:24Z</time>
      </trkpt>
      <trkpt lat="45.17133" lon="5.58656">
        <ele>1442.3759765625</ele>
        <time>2017-10-29T10:40:30Z</time>
      </trkpt>
      <trkpt lat="45.1715" lon="5.58653">
        <ele>1442.6760253906</ele>
        <time>2017-10-29T10:40:36Z</time>
      </trkpt>
      <trkpt lat="45.17158" lon="5.5865">
        <ele>1442.8759765625</ele>
        <time>2017-10-29T10:40:41Z</time>
      </trkpt>
      <trkpt lat="45.17166" lon="5.58652">
        <ele>1447.3759765625</ele>
        <time>2017-10-29T10:40:47Z</time>
      </trkpt>
      <trkpt lat="45.17174" lon="5.58652">
        <ele>1453.0760498047</ele>
        <time>2017-10-29T10:40:55Z</time>
      </trkpt>
      <trkpt lat="45.17181" lon="5.58649">
        <ele>1454.8759765625</ele>
        <time>2017-10-29T10:41:01Z</time>
      </trkpt>
      <trkpt lat="45.17188" lon="5.58645">
        <ele>1456.7760009766</ele>
        <time>2017-10-29T10:41:08Z</time>
      </trkpt>
      <trkpt lat="45.17196" lon="5.58646">
        <ele>1460.1760253906</ele>
        <time>2017-10-29T10:41:16Z</time>
      </trkpt>
      <trkpt lat="45.17204" lon="5.58647">
        <ele>1461.0760498047</ele>
        <time>2017-10-29T10:41:22Z</time>
      </trkpt>
      <trkpt lat="45.17211" lon="5.5865">
        <ele>1459.0760498047</ele>
        <time>2017-10-29T10:41:29Z</time>
      </trkpt>
      <trkpt lat="45.17219" lon="5.58648">
        <ele>1461.3759765625</ele>
        <time>2017-10-29T10:41:40Z</time>
      </trkpt>
      <trkpt lat="45.17226" lon="5.58647">
        <ele>1463.6760253906</ele>
        <time>2017-10-29T10:41:47Z</time>
      </trkpt>
      <trkpt lat="45.1724" lon="5.58639">
        <ele>1466.8759765625</ele>
        <time>2017-10-29T10:42:01Z</time>
      </trkpt>
      <trkpt lat="45.17246" lon="5.58632">
        <ele>1468.2760009766</ele>
        <time>2017-10-29T10:42:14Z</time>
      </trkpt>
      <trkpt lat="45.17249" lon="5.58622">
        <ele>1468.7760009766</ele>
        <time>2017-10-29T10:42:21Z</time>
      </trkpt>
      <trkpt lat="45.17253" lon="5.58614">
        <ele>1471.2760009766</ele>
        <time>2017-10-29T10:42:33Z</time>
      </trkpt>
      <trkpt lat="45.1726" lon="5.5861">
        <ele>1471.8759765625</ele>
        <time>2017-10-29T10:42:46Z</time>
      </trkpt>
      <trkpt lat="45.17266" lon="5.58604">
        <ele>1474.1760253906</ele>
        <time>2017-10-29T10:43:00Z</time>
      </trkpt>
      <trkpt lat="45.1727" lon="5.58594">
        <ele>1464.6760253906</ele>
        <time>2017-10-29T10:43:40Z</time>
      </trkpt>
      <trkpt lat="45.17277" lon="5.58592">
        <ele>1466.1760253906</ele>
        <time>2017-10-29T10:43:50Z</time>
      </trkpt>
      <trkpt lat="45.17289" lon="5.58578">
        <ele>1467.5760498047</ele>
        <time>2017-10-29T10:43:58Z</time>
      </trkpt>
      <trkpt lat="45.17297" lon="5.58559">
        <ele>1470.4759521484</ele>
        <time>2017-10-29T10:44:05Z</time>
      </trkpt>
      <trkpt lat="45.17297" lon="5.58548">
        <ele>1472.0760498047</ele>
        <time>2017-10-29T10:44:10Z</time>
      </trkpt>
      <trkpt lat="45.17294" lon="5.58537">
        <ele>1473.6760253906</ele>
        <time>2017-10-29T10:44:15Z</time>
      </trkpt>
      <trkpt lat="45.17286" lon="5.58517">
        <ele>1482.2760009766</ele>
        <time>2017-10-29T10:44:23Z</time>
      </trkpt>
      <trkpt lat="45.17279" lon="5.58496">
        <ele>1481.3759765625</ele>
        <time>2017-10-29T10:44:33Z</time>
      </trkpt>
      <trkpt lat="45.17265" lon="5.5848">
        <ele>1479.0760498047</ele>
        <time>2017-10-29T10:44:41Z</time>
      </trkpt>
      <trkpt lat="45.17252" lon="5.58469">
        <ele>1480.3759765625</ele>
        <time>2017-10-29T10:44:47Z</time>
      </trkpt>
      <trkpt lat="45.17238" lon="5.5846">
        <ele>1484.0760498047</ele>
        <time>2017-10-29T10:44:54Z</time>
      </trkpt>
      <trkpt lat="45.17226" lon="5.58446">
        <ele>1483.4759521484</ele>
        <time>2017-10-29T10:45:03Z</time>
      </trkpt>
      <trkpt lat="45.17219" lon="5.58441">
        <ele>1482.4759521484</ele>
        <time>2017-10-29T10:45:08Z</time>
      </trkpt>
      <trkpt lat="45.17212" lon="5.58437">
        <ele>1481.9759521484</ele>
        <time>2017-10-29T10:45:14Z</time>
      </trkpt>
      <trkpt lat="45.17204" lon="5.58433">
        <ele>1481.0760498047</ele>
        <time>2017-10-29T10:45:20Z</time>
      </trkpt>
      <trkpt lat="45.17201" lon="5.58423">
        <ele>1482.1760253906</ele>
        <time>2017-10-29T10:45:27Z</time>
      </trkpt>
      <trkpt lat="45.17194" lon="5.58419">
        <ele>1484.0760498047</ele>
        <time>2017-10-29T10:45:39Z</time>
      </trkpt>
      <trkpt lat="45.17187" lon="5.58414">
        <ele>1484.0760498047</ele>
        <time>2017-10-29T10:45:49Z</time>
      </trkpt>
      <trkpt lat="45.17181" lon="5.58406">
        <ele>1483.2760009766</ele>
        <time>2017-10-29T10:45:57Z</time>
      </trkpt>
      <trkpt lat="45.17176" lon="5.58399">
        <ele>1483.4759521484</ele>
        <time>2017-10-29T10:46:05Z</time>
      </trkpt>
      <trkpt lat="45.1717" lon="5.58392">
        <ele>1484.7760009766</ele>
        <time>2017-10-29T10:46:18Z</time>
      </trkpt>
      <trkpt lat="45.17164" lon="5.58384">
        <ele>1486.0749511719</ele>
        <time>2017-10-29T10:46:30Z</time>
      </trkpt>
      <trkpt lat="45.17158" lon="5.58378">
        <ele>1488.9749755859</ele>
        <time>2017-10-29T10:46:39Z</time>
      </trkpt>
      <trkpt lat="45.17153" lon="5.5837">
        <ele>1490.1750488281</ele>
        <time>2017-10-29T10:46:48Z</time>
      </trkpt>
      <trkpt lat="45.17145" lon="5.58365">
        <ele>1491.6750488281</ele>
        <time>2017-10-29T10:46:58Z</time>
      </trkpt>
      <trkpt lat="45.17138" lon="5.58363">
        <ele>1491.9749755859</ele>
        <time>2017-10-29T10:47:04Z</time>
      </trkpt>
      <trkpt lat="45.1713" lon="5.5836">
        <ele>1492.0749511719</ele>
        <time>2017-10-29T10:47:12Z</time>
      </trkpt>
      <trkpt lat="45.17127" lon="5.5835">
        <ele>1495.0749511719</ele>
        <time>2017-10-29T10:47:23Z</time>
      </trkpt>
      <trkpt lat="45.17121" lon="5.58344">
        <ele>1496.9749755859</ele>
        <time>2017-10-29T10:47:31Z</time>
      </trkpt>
      <trkpt lat="45.17114" lon="5.58346">
        <ele>1504.1750488281</ele>
        <time>2017-10-29T10:48:11Z</time>
      </trkpt>
      <trkpt lat="45.17109" lon="5.58338">
        <ele>1512.6750488281</ele>
        <time>2017-10-29T10:48:16Z</time>
      </trkpt>
      <trkpt lat="45.17116" lon="5.58335">
        <ele>1512.5749511719</ele>
        <time>2017-10-29T10:48:42Z</time>
      </trkpt>
      <trkpt lat="45.17108" lon="5.58345">
        <ele>1518.1750488281</ele>
        <time>2017-10-29T10:48:52Z</time>
      </trkpt>
      <trkpt lat="45.17102" lon="5.58339">
        <ele>1524.7750244141</ele>
        <time>2017-10-29T10:49:09Z</time>
      </trkpt>
      <trkpt lat="45.17094" lon="5.58336">
        <ele>1528.9749755859</ele>
        <time>2017-10-29T10:49:14Z</time>
      </trkpt>
      <trkpt lat="45.17086" lon="5.58338">
        <ele>1533.6750488281</ele>
        <time>2017-10-29T10:49:19Z</time>
      </trkpt>
      <trkpt lat="45.17077" lon="5.58337">
        <ele>1538.875</ele>
        <time>2017-10-29T10:49:24Z</time>
      </trkpt>
      <trkpt lat="45.1707" lon="5.58335">
        <ele>1544.5749511719</ele>
        <time>2017-10-29T10:49:29Z</time>
      </trkpt>
      <trkpt lat="45.17062" lon="5.58335">
        <ele>1554.5749511719</ele>
        <time>2017-10-29T10:49:37Z</time>
      </trkpt>
      <trkpt lat="45.17055" lon="5.58334">
        <ele>1562.0749511719</ele>
        <time>2017-10-29T10:49:44Z</time>
      </trkpt>
      <trkpt lat="45.17047" lon="5.58341">
        <ele>1571.6750488281</ele>
        <time>2017-10-29T10:49:52Z</time>
      </trkpt>
      <trkpt lat="45.1704" lon="5.58342">
        <ele>1580.5749511719</ele>
        <time>2017-10-29T10:50:03Z</time>
      </trkpt>
      <trkpt lat="45.17032" lon="5.58347">
        <ele>1587.2750244141</ele>
        <time>2017-10-29T10:50:16Z</time>
      </trkpt>
      <trkpt lat="45.17025" lon="5.58348">
        <ele>1592.875</ele>
        <time>2017-10-29T10:50:25Z</time>
      </trkpt>
      <trkpt lat="45.17017" lon="5.58351">
        <ele>1597.0749511719</ele>
        <time>2017-10-29T10:50:34Z</time>
      </trkpt>
      <trkpt lat="45.17011" lon="5.58356">
        <ele>1599.4749755859</ele>
        <time>2017-10-29T10:50:43Z</time>
      </trkpt>
      <trkpt lat="45.17004" lon="5.5836">
        <ele>1601.6750488281</ele>
        <time>2017-10-29T10:50:53Z</time>
      </trkpt>
      <trkpt lat="45.16997" lon="5.58364">
        <ele>1604.0749511719</ele>
        <time>2017-10-29T10:51:04Z</time>
      </trkpt>
      <trkpt lat="45.1699" lon="5.5837">
        <ele>1607.875</ele>
        <time>2017-10-29T10:51:14Z</time>
      </trkpt>
      <trkpt lat="45.16989" lon="5.58381">
        <ele>1610.5749511719</ele>
        <time>2017-10-29T10:51:23Z</time>
      </trkpt>
      <trkpt lat="45.1699" lon="5.58391">
        <ele>1610.875</ele>
        <time>2017-10-29T10:52:12Z</time>
      </trkpt>
      <trkpt lat="45.16984" lon="5.58384">
        <ele>1612.5749511719</ele>
        <time>2017-10-29T11:01:24Z</time>
      </trkpt>
      <trkpt lat="45.16977" lon="5.58377">
        <ele>1612.375</ele>
        <time>2017-10-29T11:01:29Z</time>
      </trkpt>
      <trkpt lat="45.16968" lon="5.58374">
        <ele>1610.7750244141</ele>
        <time>2017-10-29T11:01:34Z</time>
      </trkpt>
      <trkpt lat="45.1695" lon="5.5837">
        <ele>1609.5749511719</ele>
        <time>2017-10-29T11:01:40Z</time>
      </trkpt>
      <trkpt lat="45.16932" lon="5.58362">
        <ele>1610.1750488281</ele>
        <time>2017-10-29T11:01:46Z</time>
      </trkpt>
      <trkpt lat="45.16902" lon="5.58352">
        <ele>1608.875</ele>
        <time>2017-10-29T11:01:52Z</time>
      </trkpt>
      <trkpt lat="45.1687" lon="5.58337">
        <ele>1605.0749511719</ele>
        <time>2017-10-29T11:01:58Z</time>
      </trkpt>
      <trkpt lat="45.16837" lon="5.58322">
        <ele>1602.1750488281</ele>
        <time>2017-10-29T11:02:04Z</time>
      </trkpt>
      <trkpt lat="45.168" lon="5.58319">
        <ele>1600.0749511719</ele>
        <time>2017-10-29T11:02:10Z</time>
      </trkpt>
      <trkpt lat="45.16767" lon="5.58308">
        <ele>1598.1739501953</ele>
        <time>2017-10-29T11:02:15Z</time>
      </trkpt>
      <trkpt lat="45.16729" lon="5.58306">
        <ele>1596.2740478516</ele>
        <time>2017-10-29T11:02:21Z</time>
      </trkpt>
      <trkpt lat="45.16711" lon="5.58303">
        <ele>1596.7740478516</ele>
        <time>2017-10-29T11:02:26Z</time>
      </trkpt>
      <trkpt lat="45.16692" lon="5.58299">
        <ele>1598.0739746094</ele>
        <time>2017-10-29T11:02:32Z</time>
      </trkpt>
      <trkpt lat="45.16674" lon="5.58297">
        <ele>1600.1739501953</ele>
        <time>2017-10-29T11:02:37Z</time>
      </trkpt>
      <trkpt lat="45.16658" lon="5.58292">
        <ele>1603.9739990234</ele>
        <time>2017-10-29T11:02:42Z</time>
      </trkpt>
      <trkpt lat="45.16641" lon="5.58288">
        <ele>1605.2740478516</ele>
        <time>2017-10-29T11:02:48Z</time>
      </trkpt>
      <trkpt lat="45.16624" lon="5.58284">
        <ele>1606.3740234375</ele>
        <time>2017-10-29T11:02:55Z</time>
      </trkpt>
      <trkpt lat="45.16607" lon="5.58282">
        <ele>1604.3740234375</ele>
        <time>2017-10-29T11:03:02Z</time>
      </trkpt>
      <trkpt lat="45.16592" lon="5.58276">
        <ele>1604.1739501953</ele>
        <time>2017-10-29T11:03:08Z</time>
      </trkpt>
      <trkpt lat="45.16575" lon="5.58273">
        <ele>1600.1739501953</ele>
        <time>2017-10-29T11:03:15Z</time>
      </trkpt>
      <trkpt lat="45.1656" lon="5.58265">
        <ele>1596.9739990234</ele>
        <time>2017-10-29T11:03:21Z</time>
      </trkpt>
      <trkpt lat="45.16538" lon="5.58247">
        <ele>1592.9739990234</ele>
        <time>2017-10-29T11:03:27Z</time>
      </trkpt>
      <trkpt lat="45.16518" lon="5.5824">
        <ele>1592.5739746094</ele>
        <time>2017-10-29T11:03:32Z</time>
      </trkpt>
      <trkpt lat="45.1649" lon="5.58228">
        <ele>1595.5739746094</ele>
        <time>2017-10-29T11:03:38Z</time>
      </trkpt>
      <trkpt lat="45.16463" lon="5.58216">
        <ele>1600.1739501953</ele>
        <time>2017-10-29T11:03:44Z</time>
      </trkpt>
      <trkpt lat="45.16441" lon="5.58197">
        <ele>1603.4739990234</ele>
        <time>2017-10-29T11:03:51Z</time>
      </trkpt>
      <trkpt lat="45.16428" lon="5.5818">
        <ele>1604.8740234375</ele>
        <time>2017-10-29T11:03:56Z</time>
      </trkpt>
      <trkpt lat="45.16411" lon="5.5816">
        <ele>1603.873046875</ele>
        <time>2017-10-29T11:04:02Z</time>
      </trkpt>
      <trkpt lat="45.16393" lon="5.58134">
        <ele>1603.4730224609</ele>
        <time>2017-10-29T11:04:08Z</time>
      </trkpt>
      <trkpt lat="45.16385" lon="5.58116">
        <ele>1605.373046875</ele>
        <time>2017-10-29T11:04:18Z</time>
      </trkpt>
      <trkpt lat="45.16379" lon="5.58109">
        <ele>1605.373046875</ele>
        <time>2017-10-29T11:04:25Z</time>
      </trkpt>
      <trkpt lat="45.16365" lon="5.58095">
        <ele>1604.373046875</ele>
        <time>2017-10-29T11:04:34Z</time>
      </trkpt>
      <trkpt lat="45.16351" lon="5.58085">
        <ele>1603.873046875</ele>
        <time>2017-10-29T11:04:40Z</time>
      </trkpt>
      <trkpt lat="45.16334" lon="5.58077">
        <ele>1603.7729492188</ele>
        <time>2017-10-29T11:04:46Z</time>
      </trkpt>
      <trkpt lat="45.16319" lon="5.5807">
        <ele>1605.0729980469</ele>
        <time>2017-10-29T11:04:53Z</time>
      </trkpt>
      <trkpt lat="45.16303" lon="5.58064">
        <ele>1603.7729492188</ele>
        <time>2017-10-29T11:04:59Z</time>
      </trkpt>
      <trkpt lat="45.16278" lon="5.58057">
        <ele>1601.9730224609</ele>
        <time>2017-10-29T11:05:05Z</time>
      </trkpt>
      <trkpt lat="45.16251" lon="5.58054">
        <ele>1602.5729980469</ele>
        <time>2017-10-29T11:05:11Z</time>
      </trkpt>
      <trkpt lat="45.16235" lon="5.58052">
        <ele>1602.2729492188</ele>
        <time>2017-10-29T11:05:15Z</time>
      </trkpt>
      <trkpt lat="45.16202" lon="5.58042">
        <ele>1603.6729736328</ele>
        <time>2017-10-29T11:05:21Z</time>
      </trkpt>
      <trkpt lat="45.1617" lon="5.58031">
        <ele>1604.4730224609</ele>
        <time>2017-10-29T11:05:27Z</time>
      </trkpt>
      <trkpt lat="45.16134" lon="5.58038">
        <ele>1604.4730224609</ele>
        <time>2017-10-29T11:05:32Z</time>
      </trkpt>
      <trkpt lat="45.1609" lon="5.58031">
        <ele>1604.2729492188</ele>
        <time>2017-10-29T11:05:38Z</time>
      </trkpt>
      <trkpt lat="45.16058" lon="5.58026">
        <ele>1604.5729980469</ele>
        <time>2017-10-29T11:05:43Z</time>
      </trkpt>
      <trkpt lat="45.16051" lon="5.58025">
        <ele>1604.6729736328</ele>
        <time>2017-10-29T11:05:44Z</time>
      </trkpt>
      <trkpt lat="45.16008" lon="5.58018">
        <ele>1605.4720458984</ele>
        <time>2017-10-29T11:05:50Z</time>
      </trkpt>
      <trkpt lat="45.15984" lon="5.58001">
        <ele>1605.9720458984</ele>
        <time>2017-10-29T11:05:56Z</time>
      </trkpt>
      <trkpt lat="45.15965" lon="5.57995">
        <ele>1604.0720214844</ele>
        <time>2017-10-29T11:06:02Z</time>
      </trkpt>
      <trkpt lat="45.1594" lon="5.57979">
        <ele>1604.0720214844</ele>
        <time>2017-10-29T11:06:08Z</time>
      </trkpt>
      <trkpt lat="45.15914" lon="5.57947">
        <ele>1602.6719970703</ele>
        <time>2017-10-29T11:06:14Z</time>
      </trkpt>
      <trkpt lat="45.15887" lon="5.57923">
        <ele>1602.0720214844</ele>
        <time>2017-10-29T11:06:19Z</time>
      </trkpt>
      <trkpt lat="45.15877" lon="5.57917">
        <ele>1602.0720214844</ele>
        <time>2017-10-29T11:06:21Z</time>
      </trkpt>
      <trkpt lat="45.15852" lon="5.57899">
        <ele>1601.7719726562</ele>
        <time>2017-10-29T11:06:28Z</time>
      </trkpt>
      <trkpt lat="45.15836" lon="5.57893">
        <ele>1600.8719482422</ele>
        <time>2017-10-29T11:06:34Z</time>
      </trkpt>
      <trkpt lat="45.15819" lon="5.57886">
        <ele>1601.0720214844</ele>
        <time>2017-10-29T11:06:41Z</time>
      </trkpt>
      <trkpt lat="45.15803" lon="5.57878">
        <ele>1600.3719482422</ele>
        <time>2017-10-29T11:06:46Z</time>
      </trkpt>
      <trkpt lat="45.15776" lon="5.57868">
        <ele>1598.0720214844</ele>
        <time>2017-10-29T11:06:52Z</time>
      </trkpt>
      <trkpt lat="45.15736" lon="5.57858">
        <ele>1596.3719482422</ele>
        <time>2017-10-29T11:06:57Z</time>
      </trkpt>
      <trkpt lat="45.15694" lon="5.57863">
        <ele>1595.6710205078</ele>
        <time>2017-10-29T11:07:02Z</time>
      </trkpt>
      <trkpt lat="45.15664" lon="5.57871">
        <ele>1595.2709960938</ele>
        <time>2017-10-29T11:07:07Z</time>
      </trkpt>
      <trkpt lat="45.15639" lon="5.57872">
        <ele>1592.1710205078</ele>
        <time>2017-10-29T11:07:14Z</time>
      </trkpt>
      <trkpt lat="45.15622" lon="5.57877">
        <ele>1591.0710449219</ele>
        <time>2017-10-29T11:07:20Z</time>
      </trkpt>
      <trkpt lat="45.1559" lon="5.5787">
        <ele>1586.4709472656</ele>
        <time>2017-10-29T11:07:26Z</time>
      </trkpt>
      <trkpt lat="45.15564" lon="5.57855">
        <ele>1583.0710449219</ele>
        <time>2017-10-29T11:07:32Z</time>
      </trkpt>
      <trkpt lat="45.15552" lon="5.57839">
        <ele>1583.8709716797</ele>
        <time>2017-10-29T11:07:37Z</time>
      </trkpt>
      <trkpt lat="45.15536" lon="5.57826">
        <ele>1583.7709960938</ele>
        <time>2017-10-29T11:07:43Z</time>
      </trkpt>
      <trkpt lat="45.15521" lon="5.57813">
        <ele>1585.2709960938</ele>
        <time>2017-10-29T11:07:49Z</time>
      </trkpt>
      <trkpt lat="45.15506" lon="5.57799">
        <ele>1585.7709960938</ele>
        <time>2017-10-29T11:07:55Z</time>
      </trkpt>
      <trkpt lat="45.15492" lon="5.57788">
        <ele>1586.0710449219</ele>
        <time>2017-10-29T11:08:01Z</time>
      </trkpt>
      <trkpt lat="45.15472" lon="5.57783">
        <ele>1586.3709716797</ele>
        <time>2017-10-29T11:08:07Z</time>
      </trkpt>
      <trkpt lat="45.15456" lon="5.57784">
        <ele>1585.1710205078</ele>
        <time>2017-10-29T11:08:12Z</time>
      </trkpt>
      <trkpt lat="45.1544" lon="5.57787">
        <ele>1582.3709716797</ele>
        <time>2017-10-29T11:08:20Z</time>
      </trkpt>
      <trkpt lat="45.15425" lon="5.57791">
        <ele>1582.4709472656</ele>
        <time>2017-10-29T11:08:26Z</time>
      </trkpt>
      <trkpt lat="45.15404" lon="5.57791">
        <ele>1581.1710205078</ele>
        <time>2017-10-29T11:08:32Z</time>
      </trkpt>
      <trkpt lat="45.15371" lon="5.57781">
        <ele>1579.1710205078</ele>
        <time>2017-10-29T11:08:38Z</time>
      </trkpt>
      <trkpt lat="45.15335" lon="5.57769">
        <ele>1577.5710449219</ele>
        <time>2017-10-29T11:08:43Z</time>
      </trkpt>
      <trkpt lat="45.15297" lon="5.57757">
        <ele>1575.1700439453</ele>
        <time>2017-10-29T11:08:48Z</time>
      </trkpt>
      <trkpt lat="45.1526" lon="5.57751">
        <ele>1573.3699951172</ele>
        <time>2017-10-29T11:08:53Z</time>
      </trkpt>
      <trkpt lat="45.15219" lon="5.57734">
        <ele>1572.6700439453</ele>
        <time>2017-10-29T11:08:58Z</time>
      </trkpt>
      <trkpt lat="45.15186" lon="5.57725">
        <ele>1570.8699951172</ele>
        <time>2017-10-29T11:09:03Z</time>
      </trkpt>
      <trkpt lat="45.15156" lon="5.57703">
        <ele>1566.1700439453</ele>
        <time>2017-10-29T11:09:09Z</time>
      </trkpt>
      <trkpt lat="45.15121" lon="5.57689">
        <ele>1562.3699951172</ele>
        <time>2017-10-29T11:09:15Z</time>
      </trkpt>
      <trkpt lat="45.15079" lon="5.57684">
        <ele>1558.8699951172</ele>
        <time>2017-10-29T11:09:21Z</time>
      </trkpt>
      <trkpt lat="45.1505" lon="5.57694">
        <ele>1556.9699707031</ele>
        <time>2017-10-29T11:09:26Z</time>
      </trkpt>
      <trkpt lat="45.15019" lon="5.57687">
        <ele>1552.5699462891</ele>
        <time>2017-10-29T11:09:32Z</time>
      </trkpt>
      <trkpt lat="45.14982" lon="5.57695">
        <ele>1548.1700439453</ele>
        <time>2017-10-29T11:09:38Z</time>
      </trkpt>
      <trkpt lat="45.14954" lon="5.57678">
        <ele>1545.9699707031</ele>
        <time>2017-10-29T11:09:44Z</time>
      </trkpt>
      <trkpt lat="45.14925" lon="5.57666">
        <ele>1544.0699462891</ele>
        <time>2017-10-29T11:09:50Z</time>
      </trkpt>
      <trkpt lat="45.14892" lon="5.57654">
        <ele>1539.9689941406</ele>
        <time>2017-10-29T11:09:56Z</time>
      </trkpt>
      <trkpt lat="45.14865" lon="5.57639">
        <ele>1539.8690185547</ele>
        <time>2017-10-29T11:10:01Z</time>
      </trkpt>
      <trkpt lat="45.14843" lon="5.57601">
        <ele>1536.2690429688</ele>
        <time>2017-10-29T11:10:06Z</time>
      </trkpt>
      <trkpt lat="45.1481" lon="5.57596">
        <ele>1533.3690185547</ele>
        <time>2017-10-29T11:10:11Z</time>
      </trkpt>
      <trkpt lat="45.14769" lon="5.57584">
        <ele>1532.3690185547</ele>
        <time>2017-10-29T11:10:16Z</time>
      </trkpt>
      <trkpt lat="45.14724" lon="5.57581">
        <ele>1528.0689697266</ele>
        <time>2017-10-29T11:10:21Z</time>
      </trkpt>
      <trkpt lat="45.14678" lon="5.57579">
        <ele>1526.2690429688</ele>
        <time>2017-10-29T11:10:27Z</time>
      </trkpt>
      <trkpt lat="45.14645" lon="5.57575">
        <ele>1524.1689453125</ele>
        <time>2017-10-29T11:10:32Z</time>
      </trkpt>
      <trkpt lat="45.14603" lon="5.57572">
        <ele>1522.2690429688</ele>
        <time>2017-10-29T11:10:37Z</time>
      </trkpt>
      <trkpt lat="45.14572" lon="5.57556">
        <ele>1519.0689697266</ele>
        <time>2017-10-29T11:10:42Z</time>
      </trkpt>
      <trkpt lat="45.14539" lon="5.57536">
        <ele>1516.2679443359</ele>
        <time>2017-10-29T11:10:48Z</time>
      </trkpt>
      <trkpt lat="45.14523" lon="5.57537">
        <ele>1515.2679443359</ele>
        <time>2017-10-29T11:10:50Z</time>
      </trkpt>
      <trkpt lat="45.14489" lon="5.57535">
        <ele>1514.4680175781</ele>
        <time>2017-10-29T11:10:55Z</time>
      </trkpt>
      <trkpt lat="45.14463" lon="5.57535">
        <ele>1513.5679931641</ele>
        <time>2017-10-29T11:10:59Z</time>
      </trkpt>
      <trkpt lat="45.14425" lon="5.57543">
        <ele>1512.3680419922</ele>
        <time>2017-10-29T11:11:05Z</time>
      </trkpt>
      <trkpt lat="45.1439" lon="5.57557">
        <ele>1509.16796875</ele>
        <time>2017-10-29T11:11:10Z</time>
      </trkpt>
      <trkpt lat="45.1436" lon="5.57564">
        <ele>1504.4680175781</ele>
        <time>2017-10-29T11:11:15Z</time>
      </trkpt>
      <trkpt lat="45.14337" lon="5.57567">
        <ele>1501.2679443359</ele>
        <time>2017-10-29T11:11:23Z</time>
      </trkpt>
      <trkpt lat="45.14321" lon="5.57573">
        <ele>1493.5679931641</ele>
        <time>2017-10-29T11:12:04Z</time>
      </trkpt>
      <trkpt lat="45.14312" lon="5.57568">
        <ele>1494.0679931641</ele>
        <time>2017-10-29T11:12:09Z</time>
      </trkpt>
      <trkpt lat="45.1429" lon="5.57564">
        <ele>1491.16796875</ele>
        <time>2017-10-29T11:12:15Z</time>
      </trkpt>
      <trkpt lat="45.14263" lon="5.57557">
        <ele>1487.16796875</ele>
        <time>2017-10-29T11:12:21Z</time>
      </trkpt>
      <trkpt lat="45.14235" lon="5.57541">
        <ele>1485.66796875</ele>
        <time>2017-10-29T11:12:27Z</time>
      </trkpt>
      <trkpt lat="45.14207" lon="5.57527">
        <ele>1480.8680419922</ele>
        <time>2017-10-29T11:12:34Z</time>
      </trkpt>
      <trkpt lat="45.14184" lon="5.57516">
        <ele>1478.0679931641</ele>
        <time>2017-10-29T11:12:40Z</time>
      </trkpt>
      <trkpt lat="45.14153" lon="5.57502">
        <ele>1475.8680419922</ele>
        <time>2017-10-29T11:12:45Z</time>
      </trkpt>
      <trkpt lat="45.14123" lon="5.57493">
        <ele>1471.6669921875</ele>
        <time>2017-10-29T11:12:51Z</time>
      </trkpt>
      <trkpt lat="45.14088" lon="5.57477">
        <ele>1467.3669433594</ele>
        <time>2017-10-29T11:12:57Z</time>
      </trkpt>
      <trkpt lat="45.14052" lon="5.57476">
        <ele>1467.6669921875</ele>
        <time>2017-10-29T11:13:03Z</time>
      </trkpt>
      <trkpt lat="45.14034" lon="5.57452">
        <ele>1467.3669433594</ele>
        <time>2017-10-29T11:13:09Z</time>
      </trkpt>
      <trkpt lat="45.14003" lon="5.57448">
        <ele>1465.1669921875</ele>
        <time>2017-10-29T11:13:15Z</time>
      </trkpt>
      <trkpt lat="45.13967" lon="5.57444">
        <ele>1464.0670166016</ele>
        <time>2017-10-29T11:13:21Z</time>
      </trkpt>
      <trkpt lat="45.1394" lon="5.57447">
        <ele>1457.7669677734</ele>
        <time>2017-10-29T11:13:28Z</time>
      </trkpt>
      <trkpt lat="45.13917" lon="5.57448">
        <ele>1454.6669921875</ele>
        <time>2017-10-29T11:13:34Z</time>
      </trkpt>
      <trkpt lat="45.13899" lon="5.57444">
        <ele>1452.3669433594</ele>
        <time>2017-10-29T11:13:39Z</time>
      </trkpt>
      <trkpt lat="45.13874" lon="5.57433">
        <ele>1449.3669433594</ele>
        <time>2017-10-29T11:13:45Z</time>
      </trkpt>
      <trkpt lat="45.13851" lon="5.57416">
        <ele>1442.0670166016</ele>
        <time>2017-10-29T11:13:51Z</time>
      </trkpt>
      <trkpt lat="45.13824" lon="5.57417">
        <ele>1436.5670166016</ele>
        <time>2017-10-29T11:13:57Z</time>
      </trkpt>
      <trkpt lat="45.13795" lon="5.57426">
        <ele>1438.3669433594</ele>
        <time>2017-10-29T11:14:03Z</time>
      </trkpt>
      <trkpt lat="45.13766" lon="5.57429">
        <ele>1435.9670410156</ele>
        <time>2017-10-29T11:14:09Z</time>
      </trkpt>
      <trkpt lat="45.13749" lon="5.57428">
        <ele>1432.6669921875</ele>
        <time>2017-10-29T11:14:14Z</time>
      </trkpt>
      <trkpt lat="45.13735" lon="5.5743">
        <ele>1427.6669921875</ele>
        <time>2017-10-29T11:14:22Z</time>
      </trkpt>
      <trkpt lat="45.13719" lon="5.57429">
        <ele>1422.7669677734</ele>
        <time>2017-10-29T11:14:31Z</time>
      </trkpt>
      <trkpt lat="45.13712" lon="5.57426">
        <ele>1421.666015625</ele>
        <time>2017-10-29T11:14:45Z</time>
      </trkpt>
      <trkpt lat="45.13697" lon="5.57416">
        <ele>1421.0660400391</ele>
        <time>2017-10-29T11:14:50Z</time>
      </trkpt>
      <trkpt lat="45.1368" lon="5.57406">
        <ele>1420.3659667969</ele>
        <time>2017-10-29T11:14:57Z</time>
      </trkpt>
      <trkpt lat="45.13674" lon="5.574">
        <ele>1419.666015625</ele>
        <time>2017-10-29T11:15:02Z</time>
      </trkpt>
      <trkpt lat="45.13661" lon="5.57383">
        <ele>1414.166015625</ele>
        <time>2017-10-29T11:15:08Z</time>
      </trkpt>
      <trkpt lat="45.13632" lon="5.5737">
        <ele>1411.5660400391</ele>
        <time>2017-10-29T11:15:14Z</time>
      </trkpt>
      <trkpt lat="45.13614" lon="5.57358">
        <ele>1410.3659667969</ele>
        <time>2017-10-29T11:15:19Z</time>
      </trkpt>
      <trkpt lat="45.13593" lon="5.5735">
        <ele>1408.7659912109</ele>
        <time>2017-10-29T11:15:24Z</time>
      </trkpt>
      <trkpt lat="45.13576" lon="5.57345">
        <ele>1407.9659423828</ele>
        <time>2017-10-29T11:15:29Z</time>
      </trkpt>
      <trkpt lat="45.13561" lon="5.57347">
        <ele>1402.9659423828</ele>
        <time>2017-10-29T11:15:34Z</time>
      </trkpt>
      <trkpt lat="45.13558" lon="5.57337">
        <ele>1401.2659912109</ele>
        <time>2017-10-29T11:15:53Z</time>
      </trkpt>
      <trkpt lat="45.13549" lon="5.57333">
        <ele>1396.2659912109</ele>
        <time>2017-10-29T11:17:11Z</time>
      </trkpt>
      <trkpt lat="45.13526" lon="5.57319">
        <ele>1395.2659912109</ele>
        <time>2017-10-29T11:17:17Z</time>
      </trkpt>
      <trkpt lat="45.13495" lon="5.57305">
        <ele>1393.2659912109</ele>
        <time>2017-10-29T11:17:23Z</time>
      </trkpt>
      <trkpt lat="45.13467" lon="5.57294">
        <ele>1392.2659912109</ele>
        <time>2017-10-29T11:17:29Z</time>
      </trkpt>
      <trkpt lat="45.1346" lon="5.5729">
        <ele>1389.8659667969</ele>
        <time>2017-10-29T11:17:54Z</time>
      </trkpt>
      <trkpt lat="45.13452" lon="5.57291">
        <ele>1388.5660400391</ele>
        <time>2017-10-29T11:18:02Z</time>
      </trkpt>
      <trkpt lat="45.13436" lon="5.57283">
        <ele>1385.666015625</ele>
        <time>2017-10-29T11:18:07Z</time>
      </trkpt>
      <trkpt lat="45.13408" lon="5.57264">
        <ele>1380.7659912109</ele>
        <time>2017-10-29T11:18:13Z</time>
      </trkpt>
      <trkpt lat="45.13375" lon="5.57233">
        <ele>1379.5649414062</ele>
        <time>2017-10-29T11:18:19Z</time>
      </trkpt>
      <trkpt lat="45.1334" lon="5.57213">
        <ele>1379.8649902344</ele>
        <time>2017-10-29T11:18:25Z</time>
      </trkpt>
      <trkpt lat="45.13312" lon="5.57185">
        <ele>1379.7650146484</ele>
        <time>2017-10-29T11:18:31Z</time>
      </trkpt>
      <trkpt lat="45.13284" lon="5.57162">
        <ele>1379.8649902344</ele>
        <time>2017-10-29T11:18:37Z</time>
      </trkpt>
      <trkpt lat="45.13273" lon="5.5714">
        <ele>1382.3649902344</ele>
        <time>2017-10-29T11:20:04Z</time>
      </trkpt>
      <trkpt lat="45.13266" lon="5.57143">
        <ele>1381.5649414062</ele>
        <time>2017-10-29T11:20:16Z</time>
      </trkpt>
      <trkpt lat="45.1325" lon="5.57139">
        <ele>1380.6650390625</ele>
        <time>2017-10-29T11:20:22Z</time>
      </trkpt>
      <trkpt lat="45.13234" lon="5.57137">
        <ele>1378.5649414062</ele>
        <time>2017-10-29T11:20:27Z</time>
      </trkpt>
      <trkpt lat="45.13208" lon="5.57139">
        <ele>1376.4649658203</ele>
        <time>2017-10-29T11:20:33Z</time>
      </trkpt>
      <trkpt lat="45.13185" lon="5.57144">
        <ele>1368.2650146484</ele>
        <time>2017-10-29T11:20:39Z</time>
      </trkpt>
      <trkpt lat="45.13162" lon="5.57129">
        <ele>1369.2650146484</ele>
        <time>2017-10-29T11:20:45Z</time>
      </trkpt>
      <trkpt lat="45.13139" lon="5.57113">
        <ele>1367.9649658203</ele>
        <time>2017-10-29T11:20:51Z</time>
      </trkpt>
      <trkpt lat="45.13121" lon="5.57107">
        <ele>1366.9649658203</ele>
        <time>2017-10-29T11:20:56Z</time>
      </trkpt>
      <trkpt lat="45.13103" lon="5.571">
        <ele>1365.5649414062</ele>
        <time>2017-10-29T11:21:02Z</time>
      </trkpt>
      <trkpt lat="45.13077" lon="5.57095">
        <ele>1363.9649658203</ele>
        <time>2017-10-29T11:21:08Z</time>
      </trkpt>
      <trkpt lat="45.13055" lon="5.57078">
        <ele>1357.2650146484</ele>
        <time>2017-10-29T11:21:14Z</time>
      </trkpt>
      <trkpt lat="45.13037" lon="5.57084">
        <ele>1357.5649414062</ele>
        <time>2017-10-29T11:21:20Z</time>
      </trkpt>
      <trkpt lat="45.13033" lon="5.57094">
        <ele>1348.4649658203</ele>
        <time>2017-10-29T11:22:48Z</time>
      </trkpt>
      <trkpt lat="45.13019" lon="5.57103">
        <ele>1343.7640380859</ele>
        <time>2017-10-29T11:23:00Z</time>
      </trkpt>
      <trkpt lat="45.13011" lon="5.57101">
        <ele>1341.5639648438</ele>
        <time>2017-10-29T11:23:05Z</time>
      </trkpt>
      <trkpt lat="45.13003" lon="5.57101">
        <ele>1340.8640136719</ele>
        <time>2017-10-29T11:23:10Z</time>
      </trkpt>
      <trkpt lat="45.12989" lon="5.57088">
        <ele>1338.1639404297</ele>
        <time>2017-10-29T11:23:18Z</time>
      </trkpt>
      <trkpt lat="45.12973" lon="5.57088">
        <ele>1337.9639892578</ele>
        <time>2017-10-29T11:23:25Z</time>
      </trkpt>
      <trkpt lat="45.12948" lon="5.57077">
        <ele>1332.5639648438</ele>
        <time>2017-10-29T11:23:31Z</time>
      </trkpt>
      <trkpt lat="45.12932" lon="5.5707">
        <ele>1333.1639404297</ele>
        <time>2017-10-29T11:23:36Z</time>
      </trkpt>
      <trkpt lat="45.12914" lon="5.57057">
        <ele>1333.7640380859</ele>
        <time>2017-10-29T11:23:41Z</time>
      </trkpt>
      <trkpt lat="45.1289" lon="5.57054">
        <ele>1334.2640380859</ele>
        <time>2017-10-29T11:23:47Z</time>
      </trkpt>
      <trkpt lat="45.12876" lon="5.57061">
        <ele>1331.4639892578</ele>
        <time>2017-10-29T11:23:59Z</time>
      </trkpt>
      <trkpt lat="45.12862" lon="5.57061">
        <ele>1330.8640136719</ele>
        <time>2017-10-29T11:24:06Z</time>
      </trkpt>
      <trkpt lat="45.12836" lon="5.57055">
        <ele>1328.5639648438</ele>
        <time>2017-10-29T11:24:12Z</time>
      </trkpt>
      <trkpt lat="45.12809" lon="5.57043">
        <ele>1328.6639404297</ele>
        <time>2017-10-29T11:24:19Z</time>
      </trkpt>
      <trkpt lat="45.12789" lon="5.57023">
        <ele>1323.8640136719</ele>
        <time>2017-10-29T11:24:26Z</time>
      </trkpt>
      <trkpt lat="45.12775" lon="5.57009">
        <ele>1321.8640136719</ele>
        <time>2017-10-29T11:24:31Z</time>
      </trkpt>
      <trkpt lat="45.1276" lon="5.56996">
        <ele>1317.6639404297</ele>
        <time>2017-10-29T11:24:37Z</time>
      </trkpt>
      <trkpt lat="45.12753" lon="5.5699">
        <ele>1316.3640136719</ele>
        <time>2017-10-29T11:24:39Z</time>
      </trkpt>
      <trkpt lat="45.12741" lon="5.56978">
        <ele>1315.9639892578</ele>
        <time>2017-10-29T11:24:45Z</time>
      </trkpt>
      <trkpt lat="45.12726" lon="5.56978">
        <ele>1314.0639648438</ele>
        <time>2017-10-29T11:24:51Z</time>
      </trkpt>
      <trkpt lat="45.12714" lon="5.56964">
        <ele>1312.3640136719</ele>
        <time>2017-10-29T11:24:59Z</time>
      </trkpt>
      <trkpt lat="45.12719" lon="5.56924">
        <ele>1308.3640136719</ele>
        <time>2017-10-29T11:25:06Z</time>
      </trkpt>
      <trkpt lat="45.12723" lon="5.56903">
        <ele>1306.1639404297</ele>
        <time>2017-10-29T11:25:11Z</time>
      </trkpt>
      <trkpt lat="45.12731" lon="5.5688">
        <ele>1305.9639892578</ele>
        <time>2017-10-29T11:25:17Z</time>
      </trkpt>
      <trkpt lat="45.12721" lon="5.56861">
        <ele>1306.8630371094</ele>
        <time>2017-10-29T11:25:27Z</time>
      </trkpt>
      <trkpt lat="45.1273" lon="5.56838">
        <ele>1305.4630126953</ele>
        <time>2017-10-29T11:25:33Z</time>
      </trkpt>
      <trkpt lat="45.12722" lon="5.56817">
        <ele>1302.1629638672</ele>
        <time>2017-10-29T11:25:38Z</time>
      </trkpt>
      <trkpt lat="45.12693" lon="5.56804">
        <ele>1293.4630126953</ele>
        <time>2017-10-29T11:25:45Z</time>
      </trkpt>
      <trkpt lat="45.12661" lon="5.56789">
        <ele>1287.3630371094</ele>
        <time>2017-10-29T11:25:51Z</time>
      </trkpt>
      <trkpt lat="45.12632" lon="5.56775">
        <ele>1283.5629882812</ele>
        <time>2017-10-29T11:25:57Z</time>
      </trkpt>
      <trkpt lat="45.12599" lon="5.56768">
        <ele>1277.6629638672</ele>
        <time>2017-10-29T11:26:03Z</time>
      </trkpt>
      <trkpt lat="45.12558" lon="5.56766">
        <ele>1276.1629638672</ele>
        <time>2017-10-29T11:26:08Z</time>
      </trkpt>
      <trkpt lat="45.12523" lon="5.56772">
        <ele>1275.6629638672</ele>
        <time>2017-10-29T11:26:14Z</time>
      </trkpt>
      <trkpt lat="45.12492" lon="5.56769">
        <ele>1274.2629394531</ele>
        <time>2017-10-29T11:26:20Z</time>
      </trkpt>
      <trkpt lat="45.12466" lon="5.5676">
        <ele>1271.6629638672</ele>
        <time>2017-10-29T11:26:26Z</time>
      </trkpt>
      <trkpt lat="45.12446" lon="5.56755">
        <ele>1267.5629882812</ele>
        <time>2017-10-29T11:26:32Z</time>
      </trkpt>
      <trkpt lat="45.12437" lon="5.5678">
        <ele>1260.8630371094</ele>
        <time>2017-10-29T11:26:37Z</time>
      </trkpt>
      <trkpt lat="45.12408" lon="5.56796">
        <ele>1256.6629638672</ele>
        <time>2017-10-29T11:26:43Z</time>
      </trkpt>
      <trkpt lat="45.12392" lon="5.56812">
        <ele>1256.0629882812</ele>
        <time>2017-10-29T11:26:50Z</time>
      </trkpt>
      <trkpt lat="45.12387" lon="5.56835">
        <ele>1256.5629882812</ele>
        <time>2017-10-29T11:26:56Z</time>
      </trkpt>
      <trkpt lat="45.12382" lon="5.56842">
        <ele>1256.0629882812</ele>
        <time>2017-10-29T11:26:58Z</time>
      </trkpt>
      <trkpt lat="45.12374" lon="5.56852">
        <ele>1251.9630126953</ele>
        <time>2017-10-29T11:27:28Z</time>
      </trkpt>
      <trkpt lat="45.12358" lon="5.56854">
        <ele>1250.9630126953</ele>
        <time>2017-10-29T11:27:34Z</time>
      </trkpt>
      <trkpt lat="45.12334" lon="5.56857">
        <ele>1249.4630126953</ele>
        <time>2017-10-29T11:27:40Z</time>
      </trkpt>
      <trkpt lat="45.12316" lon="5.56854">
        <ele>1245.5629882812</ele>
        <time>2017-10-29T11:27:45Z</time>
      </trkpt>
      <trkpt lat="45.12298" lon="5.56847">
        <ele>1242.5629882812</ele>
        <time>2017-10-29T11:27:50Z</time>
      </trkpt>
      <trkpt lat="45.12283" lon="5.56845">
        <ele>1237.0620117188</ele>
        <time>2017-10-29T11:27:56Z</time>
      </trkpt>
      <trkpt lat="45.12263" lon="5.56868">
        <ele>1233.0620117188</ele>
        <time>2017-10-29T11:28:02Z</time>
      </trkpt>
      <trkpt lat="45.12239" lon="5.56872">
        <ele>1233.9620361328</ele>
        <time>2017-10-29T11:28:09Z</time>
      </trkpt>
      <trkpt lat="45.12219" lon="5.56871">
        <ele>1230.5620117188</ele>
        <time>2017-10-29T11:28:15Z</time>
      </trkpt>
      <trkpt lat="45.12197" lon="5.56873">
        <ele>1227.3620605469</ele>
        <time>2017-10-29T11:28:21Z</time>
      </trkpt>
      <trkpt lat="45.12176" lon="5.56885">
        <ele>1222.1619873047</ele>
        <time>2017-10-29T11:28:27Z</time>
      </trkpt>
      <trkpt lat="45.12157" lon="5.56884">
        <ele>1219.6619873047</ele>
        <time>2017-10-29T11:28:33Z</time>
      </trkpt>
      <trkpt lat="45.12141" lon="5.56894">
        <ele>1216.8620605469</ele>
        <time>2017-10-29T11:28:41Z</time>
      </trkpt>
      <trkpt lat="45.12125" lon="5.56894">
        <ele>1214.9620361328</ele>
        <time>2017-10-29T11:28:48Z</time>
      </trkpt>
      <trkpt lat="45.12117" lon="5.569">
        <ele>1211.2619628906</ele>
        <time>2017-10-29T11:28:55Z</time>
      </trkpt>
      <trkpt lat="45.12099" lon="5.56907">
        <ele>1205.8620605469</ele>
        <time>2017-10-29T11:29:06Z</time>
      </trkpt>
      <trkpt lat="45.12068" lon="5.56888">
        <ele>1199.7619628906</ele>
        <time>2017-10-29T11:29:12Z</time>
      </trkpt>
      <trkpt lat="45.12056" lon="5.56865">
        <ele>1197.6619873047</ele>
        <time>2017-10-29T11:29:17Z</time>
      </trkpt>
      <trkpt lat="45.12049" lon="5.56858">
        <ele>1193.8620605469</ele>
        <time>2017-10-29T11:29:19Z</time>
      </trkpt>
      <trkpt lat="45.1203" lon="5.5685">
        <ele>1188.3620605469</ele>
        <time>2017-10-29T11:29:25Z</time>
      </trkpt>
      <trkpt lat="45.12026" lon="5.56841">
        <ele>1178.9620361328</ele>
        <time>2017-10-29T11:29:36Z</time>
      </trkpt>
      <trkpt lat="45.12016" lon="5.56838">
        <ele>1176.7619628906</ele>
        <time>2017-10-29T11:30:27Z</time>
      </trkpt>
      <trkpt lat="45.11997" lon="5.56837">
        <ele>1173.2619628906</ele>
        <time>2017-10-29T11:30:33Z</time>
      </trkpt>
      <trkpt lat="45.11989" lon="5.5684">
        <ele>1170.8620605469</ele>
        <time>2017-10-29T11:30:40Z</time>
      </trkpt>
      <trkpt lat="45.11974" lon="5.56853">
        <ele>1168.4620361328</ele>
        <time>2017-10-29T11:30:49Z</time>
      </trkpt>
      <trkpt lat="45.11974" lon="5.56865">
        <ele>1167.5620117188</ele>
        <time>2017-10-29T11:31:08Z</time>
      </trkpt>
      <trkpt lat="45.11978" lon="5.56856">
        <ele>1167.2619628906</ele>
        <time>2017-10-29T11:31:16Z</time>
      </trkpt>
      <trkpt lat="45.11977" lon="5.56845">
        <ele>1168.0620117188</ele>
        <time>2017-10-29T11:31:21Z</time>
      </trkpt>
      <trkpt lat="45.11975" lon="5.56834">
        <ele>1167.9620361328</ele>
        <time>2017-10-29T11:31:27Z</time>
      </trkpt>
      <trkpt lat="45.11974" lon="5.56823">
        <ele>1166.2619628906</ele>
        <time>2017-10-29T11:31:39Z</time>
      </trkpt>
      <trkpt lat="45.11972" lon="5.56813">
        <ele>1162.5620117188</ele>
        <time>2017-10-29T11:31:57Z</time>
      </trkpt>
      <trkpt lat="45.11967" lon="5.56821">
        <ele>1159.0620117188</ele>
        <time>2017-10-29T11:32:03Z</time>
      </trkpt>
      <trkpt lat="45.11958" lon="5.56837">
        <ele>1151.1619873047</ele>
        <time>2017-10-29T11:32:09Z</time>
      </trkpt>
      <trkpt lat="45.11951" lon="5.56841">
        <ele>1145.5620117188</ele>
        <time>2017-10-29T11:32:16Z</time>
      </trkpt>
      <trkpt lat="45.11938" lon="5.56853">
        <ele>1133.2619628906</ele>
        <time>2017-10-29T11:32:26Z</time>
      </trkpt>
      <trkpt lat="45.11931" lon="5.56855">
        <ele>1121.0620117188</ele>
        <time>2017-10-29T11:32:35Z</time>
      </trkpt>
      <trkpt lat="45.11923" lon="5.56855">
        <ele>1115.1619873047</ele>
        <time>2017-10-29T11:32:43Z</time>
      </trkpt>
      <trkpt lat="45.11916" lon="5.56858">
        <ele>1112.0620117188</ele>
        <time>2017-10-29T11:32:46Z</time>
      </trkpt>
      <trkpt lat="45.11908" lon="5.56853">
        <ele>1105.8620605469</ele>
        <time>2017-10-29T11:32:54Z</time>
      </trkpt>
      <trkpt lat="45.11891" lon="5.56857">
        <ele>1098.4620361328</ele>
        <time>2017-10-29T11:33:00Z</time>
      </trkpt>
      <trkpt lat="45.11883" lon="5.56854">
        <ele>1087.9620361328</ele>
        <time>2017-10-29T11:33:30Z</time>
      </trkpt>
      <trkpt lat="45.11876" lon="5.56852">
        <ele>1086.8620605469</ele>
        <time>2017-10-29T11:33:38Z</time>
      </trkpt>
      <trkpt lat="45.11868" lon="5.5685">
        <ele>1081.8620605469</ele>
        <time>2017-10-29T11:33:57Z</time>
      </trkpt>
      <trkpt lat="45.1186" lon="5.56845">
        <ele>1078.4620361328</ele>
        <time>2017-10-29T11:34:06Z</time>
      </trkpt>
      <trkpt lat="45.11854" lon="5.56838">
        <ele>1074.8620605469</ele>
        <time>2017-10-29T11:34:15Z</time>
      </trkpt>
      <trkpt lat="45.11847" lon="5.56832">
        <ele>1070.3620605469</ele>
        <time>2017-10-29T11:34:24Z</time>
      </trkpt>
      <trkpt lat="45.11843" lon="5.56823">
        <ele>1067.2609863281</ele>
        <time>2017-10-29T11:34:29Z</time>
      </trkpt>
      <trkpt lat="45.11837" lon="5.56799">
        <ele>1063.0610351562</ele>
        <time>2017-10-29T11:34:34Z</time>
      </trkpt>
      <trkpt lat="45.11829" lon="5.56799">
        <ele>1061.0610351562</ele>
        <time>2017-10-29T11:34:39Z</time>
      </trkpt>
      <trkpt lat="45.11822" lon="5.56822">
        <ele>1060.0610351562</ele>
        <time>2017-10-29T11:34:44Z</time>
      </trkpt>
      <trkpt lat="45.11807" lon="5.56852">
        <ele>1057.4610595703</ele>
        <time>2017-10-29T11:34:50Z</time>
      </trkpt>
      <trkpt lat="45.11797" lon="5.56868">
        <ele>1055.4610595703</ele>
        <time>2017-10-29T11:34:57Z</time>
      </trkpt>
      <trkpt lat="45.1179" lon="5.56864">
        <ele>1052.3609619141</ele>
        <time>2017-10-29T11:35:03Z</time>
      </trkpt>
      <trkpt lat="45.11783" lon="5.56872">
        <ele>1050.6610107422</ele>
        <time>2017-10-29T11:35:09Z</time>
      </trkpt>
      <trkpt lat="45.11777" lon="5.56877">
        <ele>1048.9610595703</ele>
        <time>2017-10-29T11:35:15Z</time>
      </trkpt>
      <trkpt lat="45.1177" lon="5.56881">
        <ele>1047.8609619141</ele>
        <time>2017-10-29T11:35:21Z</time>
      </trkpt>
      <trkpt lat="45.11765" lon="5.5689">
        <ele>1047.2609863281</ele>
        <time>2017-10-29T11:35:26Z</time>
      </trkpt>
      <trkpt lat="45.1176" lon="5.56897">
        <ele>1045.9610595703</ele>
        <time>2017-10-29T11:35:32Z</time>
      </trkpt>
      <trkpt lat="45.11753" lon="5.56903">
        <ele>1044.7609863281</ele>
        <time>2017-10-29T11:35:41Z</time>
      </trkpt>
      <trkpt lat="45.11745" lon="5.56904">
        <ele>1040.6610107422</ele>
        <time>2017-10-29T11:35:54Z</time>
      </trkpt>
      <trkpt lat="45.11743" lon="5.56894">
        <ele>1035.9610595703</ele>
        <time>2017-10-29T11:36:01Z</time>
      </trkpt>
      <trkpt lat="45.11741" lon="5.5687">
        <ele>1030.0610351562</ele>
        <time>2017-10-29T11:36:08Z</time>
      </trkpt>
      <trkpt lat="45.11724" lon="5.56873">
        <ele>1028.6610107422</ele>
        <time>2017-10-29T11:36:16Z</time>
      </trkpt>
      <trkpt lat="45.11722" lon="5.56863">
        <ele>1027.1610107422</ele>
        <time>2017-10-29T11:36:20Z</time>
      </trkpt>
      <trkpt lat="45.11727" lon="5.56843">
        <ele>1024.9610595703</ele>
        <time>2017-10-29T11:36:28Z</time>
      </trkpt>
      <trkpt lat="45.11713" lon="5.56829">
        <ele>1023.8610229492</ele>
        <time>2017-10-29T11:36:34Z</time>
      </trkpt>
      <trkpt lat="45.11695" lon="5.56829">
        <ele>1022.0609741211</ele>
        <time>2017-10-29T11:36:40Z</time>
      </trkpt>
      <trkpt lat="45.11679" lon="5.56835">
        <ele>1019.9609985352</ele>
        <time>2017-10-29T11:36:45Z</time>
      </trkpt>
      <trkpt lat="45.11662" lon="5.56839">
        <ele>1014.7609863281</ele>
        <time>2017-10-29T11:36:56Z</time>
      </trkpt>
      <trkpt lat="45.11663" lon="5.56851">
        <ele>1013.2609863281</ele>
        <time>2017-10-29T11:37:07Z</time>
      </trkpt>
      <trkpt lat="45.11656" lon="5.56856">
        <ele>1010.7609863281</ele>
        <time>2017-10-29T11:37:27Z</time>
      </trkpt>
      <trkpt lat="45.11648" lon="5.56858">
        <ele>1009.5609741211</ele>
        <time>2017-10-29T11:37:32Z</time>
      </trkpt>
      <trkpt lat="45.1165" lon="5.56869">
        <ele>1008.0609741211</ele>
        <time>2017-10-29T11:37:57Z</time>
      </trkpt>
      <trkpt lat="45.11642" lon="5.56901">
        <ele>1005.9609985352</ele>
        <time>2017-10-29T11:38:02Z</time>
      </trkpt>
      <trkpt lat="45.11631" lon="5.56941">
        <ele>1000.9609985352</ele>
        <time>2017-10-29T11:38:07Z</time>
      </trkpt>
      <trkpt lat="45.11649" lon="5.56975">
        <ele>991.56097412109</ele>
        <time>2017-10-29T11:38:12Z</time>
      </trkpt>
      <trkpt lat="45.11665" lon="5.57014">
        <ele>986.46099853516</ele>
        <time>2017-10-29T11:38:18Z</time>
      </trkpt>
      <trkpt lat="45.11663" lon="5.57038">
        <ele>983.36102294922</ele>
        <time>2017-10-29T11:38:23Z</time>
      </trkpt>
      <trkpt lat="45.11635" lon="5.57067">
        <ele>976.86102294922</ele>
        <time>2017-10-29T11:38:29Z</time>
      </trkpt>
      <trkpt lat="45.11626" lon="5.57083">
        <ele>972.86102294922</ele>
        <time>2017-10-29T11:38:34Z</time>
      </trkpt>
      <trkpt lat="45.11642" lon="5.5711">
        <ele>968.86102294922</ele>
        <time>2017-10-29T11:38:40Z</time>
      </trkpt>
      <trkpt lat="45.11663" lon="5.57133">
        <ele>966.96197509766</ele>
        <time>2017-10-29T11:38:46Z</time>
      </trkpt>
      <trkpt lat="45.11681" lon="5.57162">
        <ele>968.06201171875</ele>
        <time>2017-10-29T11:38:52Z</time>
      </trkpt>
      <trkpt lat="45.11693" lon="5.57179">
        <ele>968.86199951172</ele>
        <time>2017-10-29T11:39:00Z</time>
      </trkpt>
      <trkpt lat="45.11707" lon="5.57194">
        <ele>969.26202392578</ele>
        <time>2017-10-29T11:39:05Z</time>
      </trkpt>
      <trkpt lat="45.11732" lon="5.57224">
        <ele>967.76202392578</ele>
        <time>2017-10-29T11:39:10Z</time>
      </trkpt>
      <trkpt lat="45.11763" lon="5.57258">
        <ele>967.06201171875</ele>
        <time>2017-10-29T11:39:15Z</time>
      </trkpt>
      <trkpt lat="45.11796" lon="5.5728">
        <ele>966.26202392578</ele>
        <time>2017-10-29T11:39:20Z</time>
      </trkpt>
      <trkpt lat="45.11823" lon="5.5731">
        <ele>965.96197509766</ele>
        <time>2017-10-29T11:39:26Z</time>
      </trkpt>
      <trkpt lat="45.11817" lon="5.5732">
        <ele>962.76202392578</ele>
        <time>2017-10-29T11:39:27Z</time>
      </trkpt>
      <trkpt lat="45.11798" lon="5.57373">
        <ele>957.36199951172</ele>
        <time>2017-10-29T11:39:33Z</time>
      </trkpt>
      <trkpt lat="45.11791" lon="5.57426">
        <ele>953.16198730469</ele>
        <time>2017-10-29T11:39:38Z</time>
      </trkpt>
      <trkpt lat="45.1179" lon="5.57484">
        <ele>951.76202392578</ele>
        <time>2017-10-29T11:39:43Z</time>
      </trkpt>
      <trkpt lat="45.11793" lon="5.57551">
        <ele>953.06201171875</ele>
        <time>2017-10-29T11:39:48Z</time>
      </trkpt>
      <trkpt lat="45.11796" lon="5.57587">
        <ele>951.86199951172</ele>
        <time>2017-10-29T11:39:51Z</time>
      </trkpt>
      <trkpt lat="45.11798" lon="5.5765">
        <ele>950.96301269531</ele>
        <time>2017-10-29T11:39:57Z</time>
      </trkpt>
      <trkpt lat="45.11793" lon="5.57702">
        <ele>950.46301269531</ele>
        <time>2017-10-29T11:40:03Z</time>
      </trkpt>
      <trkpt lat="45.11785" lon="5.57747">
        <ele>950.06298828125</ele>
        <time>2017-10-29T11:40:09Z</time>
      </trkpt>
      <trkpt lat="45.11779" lon="5.57781">
        <ele>950.86297607422</ele>
        <time>2017-10-29T11:40:16Z</time>
      </trkpt>
      <trkpt lat="45.11777" lon="5.57803">
        <ele>951.06298828125</ele>
        <time>2017-10-29T11:40:22Z</time>
      </trkpt>
      <trkpt lat="45.11773" lon="5.57827">
        <ele>950.96301269531</ele>
        <time>2017-10-29T11:40:28Z</time>
      </trkpt>
      <trkpt lat="45.11768" lon="5.57847">
        <ele>950.66302490234</ele>
        <time>2017-10-29T11:40:36Z</time>
      </trkpt>
      <trkpt lat="45.11776" lon="5.57854">
        <ele>949.16302490234</ele>
        <time>2017-10-29T11:40:41Z</time>
      </trkpt>
      <trkpt lat="45.11789" lon="5.57863">
        <ele>948.96301269531</ele>
        <time>2017-10-29T11:40:47Z</time>
      </trkpt>
      <trkpt lat="45.11804" lon="5.57873">
        <ele>949.86297607422</ele>
        <time>2017-10-29T11:40:53Z</time>
      </trkpt>
      <trkpt lat="45.11822" lon="5.57883">
        <ele>948.46301269531</ele>
        <time>2017-10-29T11:40:59Z</time>
      </trkpt>
      <trkpt lat="45.1184" lon="5.57895">
        <ele>947.56298828125</ele>
        <time>2017-10-29T11:41:05Z</time>
      </trkpt>
      <trkpt lat="45.11855" lon="5.57906">
        <ele>948.16302490234</ele>
        <time>2017-10-29T11:41:10Z</time>
      </trkpt>
      <trkpt lat="45.11872" lon="5.57918">
        <ele>948.66302490234</ele>
        <time>2017-10-29T11:41:15Z</time>
      </trkpt>
      <trkpt lat="45.11889" lon="5.57929">
        <ele>950.06298828125</ele>
        <time>2017-10-29T11:41:20Z</time>
      </trkpt>
      <trkpt lat="45.1191" lon="5.57943">
        <ele>950.36297607422</ele>
        <time>2017-10-29T11:41:26Z</time>
      </trkpt>
      <trkpt lat="45.1193" lon="5.57958">
        <ele>950.06298828125</ele>
        <time>2017-10-29T11:41:32Z</time>
      </trkpt>
      <trkpt lat="45.11945" lon="5.57971">
        <ele>951.36297607422</ele>
        <time>2017-10-29T11:41:37Z</time>
      </trkpt>
      <trkpt lat="45.11967" lon="5.57985">
        <ele>952.16302490234</ele>
        <time>2017-10-29T11:41:43Z</time>
      </trkpt>
      <trkpt lat="45.11988" lon="5.57998">
        <ele>950.96301269531</ele>
        <time>2017-10-29T11:41:49Z</time>
      </trkpt>
      <trkpt lat="45.1201" lon="5.58012">
        <ele>949.86401367188</ele>
        <time>2017-10-29T11:41:55Z</time>
      </trkpt>
      <trkpt lat="45.12028" lon="5.58021">
        <ele>949.96398925781</ele>
        <time>2017-10-29T11:42:00Z</time>
      </trkpt>
      <trkpt lat="45.12045" lon="5.58029">
        <ele>948.46398925781</ele>
        <time>2017-10-29T11:42:05Z</time>
      </trkpt>
      <trkpt lat="45.12068" lon="5.58038">
        <ele>949.06402587891</ele>
        <time>2017-10-29T11:42:11Z</time>
      </trkpt>
      <trkpt lat="45.12091" lon="5.58047">
        <ele>949.06402587891</ele>
        <time>2017-10-29T11:42:17Z</time>
      </trkpt>
      <trkpt lat="45.12116" lon="5.58056">
        <ele>952.36401367188</ele>
        <time>2017-10-29T11:42:24Z</time>
      </trkpt>
      <trkpt lat="45.12139" lon="5.58064">
        <ele>951.86401367188</ele>
        <time>2017-10-29T11:42:30Z</time>
      </trkpt>
      <trkpt lat="45.12164" lon="5.58072">
        <ele>951.16400146484</ele>
        <time>2017-10-29T11:42:36Z</time>
      </trkpt>
      <trkpt lat="45.12187" lon="5.5808">
        <ele>951.46398925781</ele>
        <time>2017-10-29T11:42:42Z</time>
      </trkpt>
      <trkpt lat="45.12213" lon="5.5809">
        <ele>951.46398925781</ele>
        <time>2017-10-29T11:42:48Z</time>
      </trkpt>
      <trkpt lat="45.12238" lon="5.58099">
        <ele>951.76397705078</ele>
        <time>2017-10-29T11:42:54Z</time>
      </trkpt>
      <trkpt lat="45.12262" lon="5.58106">
        <ele>952.16400146484</ele>
        <time>2017-10-29T11:43:00Z</time>
      </trkpt>
      <trkpt lat="45.12286" lon="5.58112">
        <ele>953.76397705078</ele>
        <time>2017-10-29T11:43:06Z</time>
      </trkpt>
      <trkpt lat="45.12309" lon="5.5812">
        <ele>953.76397705078</ele>
        <time>2017-10-29T11:43:12Z</time>
      </trkpt>
      <trkpt lat="45.12332" lon="5.58129">
        <ele>954.16400146484</ele>
        <time>2017-10-29T11:43:18Z</time>
      </trkpt>
      <trkpt lat="45.12356" lon="5.58137">
        <ele>953.16497802734</ele>
        <time>2017-10-29T11:43:24Z</time>
      </trkpt>
      <trkpt lat="45.12381" lon="5.58146">
        <ele>953.36499023438</ele>
        <time>2017-10-29T11:43:30Z</time>
      </trkpt>
      <trkpt lat="45.12405" lon="5.58154">
        <ele>953.56500244141</ele>
        <time>2017-10-29T11:43:36Z</time>
      </trkpt>
      <trkpt lat="45.12428" lon="5.58163">
        <ele>955.26501464844</ele>
        <time>2017-10-29T11:43:42Z</time>
      </trkpt>
      <trkpt lat="45.12445" lon="5.58169">
        <ele>954.96502685547</ele>
        <time>2017-10-29T11:43:47Z</time>
      </trkpt>
      <trkpt lat="45.12463" lon="5.58174">
        <ele>952.36499023438</ele>
        <time>2017-10-29T11:43:52Z</time>
      </trkpt>
      <trkpt lat="45.1248" lon="5.5818">
        <ele>951.86499023438</ele>
        <time>2017-10-29T11:43:57Z</time>
      </trkpt>
      <trkpt lat="45.12503" lon="5.58187">
        <ele>953.16497802734</ele>
        <time>2017-10-29T11:44:03Z</time>
      </trkpt>
      <trkpt lat="45.1252" lon="5.58194">
        <ele>953.76501464844</ele>
        <time>2017-10-29T11:44:08Z</time>
      </trkpt>
      <trkpt lat="45.12537" lon="5.58207">
        <ele>952.86499023438</ele>
        <time>2017-10-29T11:44:14Z</time>
      </trkpt>
      <trkpt lat="45.12549" lon="5.58227">
        <ele>953.26501464844</ele>
        <time>2017-10-29T11:44:19Z</time>
      </trkpt>
      <trkpt lat="45.12566" lon="5.58249">
        <ele>954.26501464844</ele>
        <time>2017-10-29T11:44:25Z</time>
      </trkpt>
      <trkpt lat="45.12582" lon="5.58276">
        <ele>955.96502685547</ele>
        <time>2017-10-29T11:44:32Z</time>
      </trkpt>
      <trkpt lat="45.12591" lon="5.58302">
        <ele>956.46502685547</ele>
        <time>2017-10-29T11:44:38Z</time>
      </trkpt>
      <trkpt lat="45.12602" lon="5.58321">
        <ele>956.16497802734</ele>
        <time>2017-10-29T11:44:43Z</time>
      </trkpt>
      <trkpt lat="45.12613" lon="5.58342">
        <ele>956.26501464844</ele>
        <time>2017-10-29T11:44:48Z</time>
      </trkpt>
      <trkpt lat="45.12625" lon="5.58373">
        <ele>956.36499023438</ele>
        <time>2017-10-29T11:44:55Z</time>
      </trkpt>
      <trkpt lat="45.12635" lon="5.58396">
        <ele>956.16497802734</ele>
        <time>2017-10-29T11:45:00Z</time>
      </trkpt>
      <trkpt lat="45.12646" lon="5.58429">
        <ele>956.166015625</ele>
        <time>2017-10-29T11:45:07Z</time>
      </trkpt>
      <trkpt lat="45.12651" lon="5.58457">
        <ele>956.36602783203</ele>
        <time>2017-10-29T11:45:13Z</time>
      </trkpt>
      <trkpt lat="45.12656" lon="5.58482">
        <ele>956.26599121094</ele>
        <time>2017-10-29T11:45:19Z</time>
      </trkpt>
      <trkpt lat="45.12661" lon="5.5851">
        <ele>956.166015625</ele>
        <time>2017-10-29T11:45:25Z</time>
      </trkpt>
      <trkpt lat="45.12665" lon="5.58538">
        <ele>955.76599121094</ele>
        <time>2017-10-29T11:45:31Z</time>
      </trkpt>
      <trkpt lat="45.12673" lon="5.58561">
        <ele>956.46600341797</ele>
        <time>2017-10-29T11:45:37Z</time>
      </trkpt>
      <trkpt lat="45.12684" lon="5.58581">
        <ele>956.06597900391</ele>
        <time>2017-10-29T11:45:42Z</time>
      </trkpt>
      <trkpt lat="45.12692" lon="5.58604">
        <ele>955.86602783203</ele>
        <time>2017-10-29T11:45:47Z</time>
      </trkpt>
      <trkpt lat="45.12707" lon="5.58629">
        <ele>956.166015625</ele>
        <time>2017-10-29T11:45:53Z</time>
      </trkpt>
      <trkpt lat="45.12716" lon="5.58651">
        <ele>957.36602783203</ele>
        <time>2017-10-29T11:45:58Z</time>
      </trkpt>
      <trkpt lat="45.12728" lon="5.58668">
        <ele>958.666015625</ele>
        <time>2017-10-29T11:46:03Z</time>
      </trkpt>
      <trkpt lat="45.12745" lon="5.5868">
        <ele>958.86602783203</ele>
        <time>2017-10-29T11:46:09Z</time>
      </trkpt>
      <trkpt lat="45.12761" lon="5.58695">
        <ele>958.666015625</ele>
        <time>2017-10-29T11:46:15Z</time>
      </trkpt>
      <trkpt lat="45.12783" lon="5.58709">
        <ele>957.56597900391</ele>
        <time>2017-10-29T11:46:21Z</time>
      </trkpt>
      <trkpt lat="45.12804" lon="5.58724">
        <ele>958.86602783203</ele>
        <time>2017-10-29T11:46:27Z</time>
      </trkpt>
      <trkpt lat="45.12828" lon="5.58743">
        <ele>958.46600341797</ele>
        <time>2017-10-29T11:46:34Z</time>
      </trkpt>
      <trkpt lat="45.1284" lon="5.58754">
        <ele>958.56597900391</ele>
        <time>2017-10-29T11:46:39Z</time>
      </trkpt>
      <trkpt lat="45.12855" lon="5.58756">
        <ele>959.26599121094</ele>
        <time>2017-10-29T11:46:49Z</time>
      </trkpt>
      <trkpt lat="45.12867" lon="5.58739">
        <ele>959.26599121094</ele>
        <time>2017-10-29T11:46:55Z</time>
      </trkpt>
      <trkpt lat="45.12877" lon="5.58716">
        <ele>959.26599121094</ele>
        <time>2017-10-29T11:47:01Z</time>
      </trkpt>
      <trkpt lat="45.12888" lon="5.58685">
        <ele>959.36602783203</ele>
        <time>2017-10-29T11:47:07Z</time>
      </trkpt>
      <trkpt lat="45.12899" lon="5.58642">
        <ele>958.166015625</ele>
        <time>2017-10-29T11:47:13Z</time>
      </trkpt>
      <trkpt lat="45.12911" lon="5.58602">
        <ele>958.26599121094</ele>
        <time>2017-10-29T11:47:19Z</time>
      </trkpt>
      <trkpt lat="45.12916" lon="5.58566">
        <ele>957.86602783203</ele>
        <time>2017-10-29T11:47:25Z</time>
      </trkpt>
      <trkpt lat="45.12916" lon="5.5853">
        <ele>957.86602783203</ele>
        <time>2017-10-29T11:47:31Z</time>
      </trkpt>
    </trkseg>
  </trk>
</gpx>